<?xml version="1.0" encoding="UTF-8"?>
<gpx xmlns="http://www.topografix.com/GPX/1/1" xmlns:gpsies="http://www.gpsies.com/GPX/1/0" creator="GPSies http://www.gpsies.com - 148km3LaufDeister_4122010" version="1.1" xmlns:xsi="http://www.w3.org/2001/XMLSchema-instance" xsi:schemaLocation="http://www.topografix.com/GPX/1/1 http://www.topografix.com/GPX/1/1/gpx.xsd http://www.gpsies.com/GPX/1/0 http://www.gpsies.com/gpsies.xsd">
  <metadata>
    <name>148km3LaufDeister_4122010</name>
    <link href="http://www.gpsies.com/map.do?fileId=nuhiojlljrgmgsol">
      <text>148km3LaufDeister_4122010 on GPSies.com</text>
    </link>
    <time>2012-03-09T21:31:34Z</time>
    <extensions>
      <gpsies:property>round trip</gpsies:property>
      <gpsies:trackLengthMeter>14810.3300219049</gpsies:trackLengthMeter>
      <gpsies:totalAscentMeter>387.03</gpsies:totalAscentMeter>
      <gpsies:totalDescentMeter>372.318</gpsies:totalDescentMeter>
      <gpsies:minHeightMeter>67.82</gpsies:minHeightMeter>
      <gpsies:maxHeightMeter>340.937</gpsies:maxHeightMeter>
    </extensions>
  </metadata>
  <trk>
    <name>148km3LaufDeister_4122010 on GPSies.com</name>
    <link href="http://www.gpsies.com/map.do?fileId=nuhiojlljrgmgsol" />
    <trkseg>
      <trkpt lat="52.24819500" lon="9.607824000">
        <ele>73.496000</ele>
        <time>2012-03-09T21:31:34Z</time>
      </trkpt>
      <trkpt lat="52.24834300" lon="9.608007000">
        <ele>73.039000</ele>
        <time>2012-03-09T21:31:41Z</time>
      </trkpt>
      <trkpt lat="52.24846100" lon="9.608108000">
        <ele>71.454000</ele>
        <time>2012-03-09T21:31:47Z</time>
      </trkpt>
      <trkpt lat="52.24850400" lon="9.608133000">
        <ele>70.061000</ele>
        <time>2012-03-09T21:31:49Z</time>
      </trkpt>
      <trkpt lat="52.24859700" lon="9.608177000">
        <ele>68.772000</ele>
        <time>2012-03-09T21:31:52Z</time>
      </trkpt>
      <trkpt lat="52.24874900" lon="9.608281000">
        <ele>68.597000</ele>
        <time>2012-03-09T21:31:59Z</time>
      </trkpt>
      <trkpt lat="52.24878800" lon="9.608327000">
        <ele>67.873000</ele>
        <time>2012-03-09T21:32:01Z</time>
      </trkpt>
      <trkpt lat="52.24877400" lon="9.608674000">
        <ele>67.820000</ele>
        <time>2012-03-09T21:32:09Z</time>
      </trkpt>
      <trkpt lat="52.24868900" lon="9.608828000">
        <ele>69.002000</ele>
        <time>2012-03-09T21:32:15Z</time>
      </trkpt>
      <trkpt lat="52.24857300" lon="9.609035000">
        <ele>68.610000</ele>
        <time>2012-03-09T21:32:21Z</time>
      </trkpt>
      <trkpt lat="52.24849300" lon="9.609172000">
        <ele>68.553000</ele>
        <time>2012-03-09T21:32:26Z</time>
      </trkpt>
      <trkpt lat="52.24845600" lon="9.609233000">
        <ele>69.026000</ele>
        <time>2012-03-09T21:32:28Z</time>
      </trkpt>
      <trkpt lat="52.24838200" lon="9.609355000">
        <ele>69.086000</ele>
        <time>2012-03-09T21:32:32Z</time>
      </trkpt>
      <trkpt lat="52.24826600" lon="9.609547000">
        <ele>70.360000</ele>
        <time>2012-03-09T21:32:39Z</time>
      </trkpt>
      <trkpt lat="52.24818800" lon="9.609676000">
        <ele>71.029000</ele>
        <time>2012-03-09T21:32:43Z</time>
      </trkpt>
      <trkpt lat="52.24810000" lon="9.609820000">
        <ele>71.311000</ele>
        <time>2012-03-09T21:32:48Z</time>
      </trkpt>
      <trkpt lat="52.24806400" lon="9.609881000">
        <ele>71.376000</ele>
        <time>2012-03-09T21:32:50Z</time>
      </trkpt>
      <trkpt lat="52.24797300" lon="9.610031000">
        <ele>72.835000</ele>
        <time>2012-03-09T21:32:56Z</time>
      </trkpt>
      <trkpt lat="52.24786500" lon="9.610208000">
        <ele>74.003000</ele>
        <time>2012-03-09T21:33:02Z</time>
      </trkpt>
      <trkpt lat="52.24779800" lon="9.610321000">
        <ele>74.683000</ele>
        <time>2012-03-09T21:33:06Z</time>
      </trkpt>
      <trkpt lat="52.24769600" lon="9.610488000">
        <ele>75.636000</ele>
        <time>2012-03-09T21:33:11Z</time>
      </trkpt>
      <trkpt lat="52.24759300" lon="9.610664000">
        <ele>75.956000</ele>
        <time>2012-03-09T21:33:17Z</time>
      </trkpt>
      <trkpt lat="52.24753700" lon="9.610758000">
        <ele>76.308000</ele>
        <time>2012-03-09T21:33:21Z</time>
      </trkpt>
      <trkpt lat="52.24744300" lon="9.610917000">
        <ele>76.397000</ele>
        <time>2012-03-09T21:33:26Z</time>
      </trkpt>
      <trkpt lat="52.24733600" lon="9.611098000">
        <ele>77.367000</ele>
        <time>2012-03-09T21:33:32Z</time>
      </trkpt>
      <trkpt lat="52.24724700" lon="9.611249000">
        <ele>77.808000</ele>
        <time>2012-03-09T21:33:37Z</time>
      </trkpt>
      <trkpt lat="52.24709000" lon="9.611516000">
        <ele>77.457000</ele>
        <time>2012-03-09T21:33:46Z</time>
      </trkpt>
      <trkpt lat="52.24699400" lon="9.611679000">
        <ele>76.749000</ele>
        <time>2012-03-09T21:33:52Z</time>
      </trkpt>
      <trkpt lat="52.24686900" lon="9.611889000">
        <ele>77.259000</ele>
        <time>2012-03-09T21:33:59Z</time>
      </trkpt>
      <trkpt lat="52.24672600" lon="9.612132000">
        <ele>76.672000</ele>
        <time>2012-03-09T21:34:07Z</time>
      </trkpt>
      <trkpt lat="52.24660500" lon="9.612338000">
        <ele>75.948000</ele>
        <time>2012-03-09T21:34:14Z</time>
      </trkpt>
      <trkpt lat="52.24644300" lon="9.612616000">
        <ele>75.803000</ele>
        <time>2012-03-09T21:34:24Z</time>
      </trkpt>
      <trkpt lat="52.24633700" lon="9.612795000">
        <ele>75.354000</ele>
        <time>2012-03-09T21:34:30Z</time>
      </trkpt>
      <trkpt lat="52.24621900" lon="9.612998000">
        <ele>75.079000</ele>
        <time>2012-03-09T21:34:37Z</time>
      </trkpt>
      <trkpt lat="52.24607300" lon="9.613246000">
        <ele>75.306000</ele>
        <time>2012-03-09T21:34:45Z</time>
      </trkpt>
      <trkpt lat="52.24591400" lon="9.613517000">
        <ele>76.855000</ele>
        <time>2012-03-09T21:34:54Z</time>
      </trkpt>
      <trkpt lat="52.24576200" lon="9.613778000">
        <ele>78.633000</ele>
        <time>2012-03-09T21:35:03Z</time>
      </trkpt>
      <trkpt lat="52.24564000" lon="9.613985000">
        <ele>78.387000</ele>
        <time>2012-03-09T21:35:10Z</time>
      </trkpt>
      <trkpt lat="52.24550200" lon="9.614220000">
        <ele>78.443000</ele>
        <time>2012-03-09T21:35:18Z</time>
      </trkpt>
      <trkpt lat="52.24538800" lon="9.614414000">
        <ele>79.248000</ele>
        <time>2012-03-09T21:35:25Z</time>
      </trkpt>
      <trkpt lat="52.24523900" lon="9.614670000">
        <ele>80.570000</ele>
        <time>2012-03-09T21:35:33Z</time>
      </trkpt>
      <trkpt lat="52.24509600" lon="9.614913000">
        <ele>81.286000</ele>
        <time>2012-03-09T21:35:42Z</time>
      </trkpt>
      <trkpt lat="52.24498900" lon="9.615100000">
        <ele>80.311000</ele>
        <time>2012-03-09T21:35:48Z</time>
      </trkpt>
      <trkpt lat="52.24490400" lon="9.615273000">
        <ele>79.951000</ele>
        <time>2012-03-09T21:35:53Z</time>
      </trkpt>
      <trkpt lat="52.24479900" lon="9.615458000">
        <ele>80.134000</ele>
        <time>2012-03-09T21:36:00Z</time>
      </trkpt>
      <trkpt lat="52.24467000" lon="9.615679000">
        <ele>80.311000</ele>
        <time>2012-03-09T21:36:07Z</time>
      </trkpt>
      <trkpt lat="52.24452800" lon="9.615920000">
        <ele>82.147000</ele>
        <time>2012-03-09T21:36:15Z</time>
      </trkpt>
      <trkpt lat="52.24437100" lon="9.616186000">
        <ele>83.215000</ele>
        <time>2012-03-09T21:36:24Z</time>
      </trkpt>
      <trkpt lat="52.24420100" lon="9.616476000">
        <ele>84.443000</ele>
        <time>2012-03-09T21:36:34Z</time>
      </trkpt>
      <trkpt lat="52.24411700" lon="9.616618000">
        <ele>85.242000</ele>
        <time>2012-03-09T21:36:39Z</time>
      </trkpt>
      <trkpt lat="52.24398300" lon="9.616846000">
        <ele>86.563000</ele>
        <time>2012-03-09T21:36:47Z</time>
      </trkpt>
      <trkpt lat="52.24382300" lon="9.617118000">
        <ele>87.380000</ele>
        <time>2012-03-09T21:36:56Z</time>
      </trkpt>
      <trkpt lat="52.24369400" lon="9.617337000">
        <ele>86.693000</ele>
        <time>2012-03-09T21:37:03Z</time>
      </trkpt>
      <trkpt lat="52.24353500" lon="9.617608000">
        <ele>87.472000</ele>
        <time>2012-03-09T21:37:13Z</time>
      </trkpt>
      <trkpt lat="52.24336200" lon="9.617901000">
        <ele>87.335000</ele>
        <time>2012-03-09T21:37:23Z</time>
      </trkpt>
      <trkpt lat="52.24322800" lon="9.618130000">
        <ele>87.161000</ele>
        <time>2012-03-09T21:37:30Z</time>
      </trkpt>
      <trkpt lat="52.24304100" lon="9.618448000">
        <ele>87.015000</ele>
        <time>2012-03-09T21:37:41Z</time>
      </trkpt>
      <trkpt lat="52.24287500" lon="9.618729000">
        <ele>85.435000</ele>
        <time>2012-03-09T21:37:51Z</time>
      </trkpt>
      <trkpt lat="52.24265100" lon="9.618652000">
        <ele>86.381000</ele>
        <time>2012-03-09T21:38:00Z</time>
      </trkpt>
      <trkpt lat="52.24251700" lon="9.618646000">
        <ele>85.694000</ele>
        <time>2012-03-09T21:38:05Z</time>
      </trkpt>
      <trkpt lat="52.24243600" lon="9.618643000">
        <ele>85.657000</ele>
        <time>2012-03-09T21:38:09Z</time>
      </trkpt>
      <trkpt lat="52.24220900" lon="9.618645000">
        <ele>86.495000</ele>
        <time>2012-03-09T21:38:18Z</time>
      </trkpt>
      <trkpt lat="52.24211300" lon="9.618646000">
        <ele>85.871000</ele>
        <time>2012-03-09T21:38:22Z</time>
      </trkpt>
      <trkpt lat="52.24201000" lon="9.618647000">
        <ele>86.595000</ele>
        <time>2012-03-09T21:38:26Z</time>
      </trkpt>
      <trkpt lat="52.24189200" lon="9.618648000">
        <ele>87.250000</ele>
        <time>2012-03-09T21:38:30Z</time>
      </trkpt>
      <trkpt lat="52.24171600" lon="9.618650000">
        <ele>88.144000</ele>
        <time>2012-03-09T21:38:37Z</time>
      </trkpt>
      <trkpt lat="52.24154700" lon="9.618652000">
        <ele>87.861000</ele>
        <time>2012-03-09T21:38:44Z</time>
      </trkpt>
      <trkpt lat="52.24149400" lon="9.618652000">
        <ele>87.792000</ele>
        <time>2012-03-09T21:38:46Z</time>
      </trkpt>
      <trkpt lat="52.24141000" lon="9.618653000">
        <ele>87.723000</ele>
        <time>2012-03-09T21:38:50Z</time>
      </trkpt>
      <trkpt lat="52.24117200" lon="9.618675000">
        <ele>87.708000</ele>
        <time>2012-03-09T21:38:59Z</time>
      </trkpt>
      <trkpt lat="52.24097500" lon="9.618700000">
        <ele>89.356000</ele>
        <time>2012-03-09T21:39:07Z</time>
      </trkpt>
      <trkpt lat="52.24081400" lon="9.618720000">
        <ele>89.869000</ele>
        <time>2012-03-09T21:39:14Z</time>
      </trkpt>
      <trkpt lat="52.24065700" lon="9.618744000">
        <ele>90.104000</ele>
        <time>2012-03-09T21:39:20Z</time>
      </trkpt>
      <trkpt lat="52.24042700" lon="9.618780000">
        <ele>90.725000</ele>
        <time>2012-03-09T21:39:29Z</time>
      </trkpt>
      <trkpt lat="52.24027600" lon="9.618803000">
        <ele>91.166000</ele>
        <time>2012-03-09T21:39:35Z</time>
      </trkpt>
      <trkpt lat="52.24023200" lon="9.618810000">
        <ele>91.151000</ele>
        <time>2012-03-09T21:39:37Z</time>
      </trkpt>
      <trkpt lat="52.24020600" lon="9.618814000">
        <ele>91.602000</ele>
        <time>2012-03-09T21:39:38Z</time>
      </trkpt>
      <trkpt lat="52.24002800" lon="9.618841000">
        <ele>91.885000</ele>
        <time>2012-03-09T21:39:45Z</time>
      </trkpt>
      <trkpt lat="52.23975300" lon="9.618852000">
        <ele>90.458000</ele>
        <time>2012-03-09T21:39:56Z</time>
      </trkpt>
      <trkpt lat="52.23963700" lon="9.618863000">
        <ele>89.610000</ele>
        <time>2012-03-09T21:40:01Z</time>
      </trkpt>
      <trkpt lat="52.23961200" lon="9.618868000">
        <ele>90.390000</ele>
        <time>2012-03-09T21:40:02Z</time>
      </trkpt>
      <trkpt lat="52.23954000" lon="9.618882000">
        <ele>90.458000</ele>
        <time>2012-03-09T21:40:05Z</time>
      </trkpt>
      <trkpt lat="52.23946000" lon="9.618899000">
        <ele>91.106000</ele>
        <time>2012-03-09T21:40:08Z</time>
      </trkpt>
      <trkpt lat="52.23938100" lon="9.618915000">
        <ele>91.748000</ele>
        <time>2012-03-09T21:40:11Z</time>
      </trkpt>
      <trkpt lat="52.23920300" lon="9.618978000">
        <ele>93.724000</ele>
        <time>2012-03-09T21:40:18Z</time>
      </trkpt>
      <trkpt lat="52.23908600" lon="9.619089000">
        <ele>94.868000</ele>
        <time>2012-03-09T21:40:24Z</time>
      </trkpt>
      <trkpt lat="52.23893800" lon="9.619230000">
        <ele>96.253000</ele>
        <time>2012-03-09T21:40:31Z</time>
      </trkpt>
      <trkpt lat="52.23879300" lon="9.619368000">
        <ele>96.818000</ele>
        <time>2012-03-09T21:40:37Z</time>
      </trkpt>
      <trkpt lat="52.23864700" lon="9.619507000">
        <ele>98.010000</ele>
        <time>2012-03-09T21:40:44Z</time>
      </trkpt>
      <trkpt lat="52.23848700" lon="9.619660000">
        <ele>99.852000</ele>
        <time>2012-03-09T21:40:52Z</time>
      </trkpt>
      <trkpt lat="52.23835200" lon="9.619788000">
        <ele>101.27900</ele>
        <time>2012-03-09T21:40:58Z</time>
      </trkpt>
      <trkpt lat="52.23829400" lon="9.619843000">
        <ele>102.12700</ele>
        <time>2012-03-09T21:41:01Z</time>
      </trkpt>
      <trkpt lat="52.23811300" lon="9.619974000">
        <ele>103.42700</ele>
        <time>2012-03-09T21:41:08Z</time>
      </trkpt>
      <trkpt lat="52.23795200" lon="9.620066000">
        <ele>105.28400</ele>
        <time>2012-03-09T21:41:15Z</time>
      </trkpt>
      <trkpt lat="52.23768500" lon="9.620220000">
        <ele>106.31000</ele>
        <time>2012-03-09T21:41:27Z</time>
      </trkpt>
      <trkpt lat="52.23751700" lon="9.620465000">
        <ele>107.38800</ele>
        <time>2012-03-09T21:41:36Z</time>
      </trkpt>
      <trkpt lat="52.23741400" lon="9.620615000">
        <ele>108.21200</ele>
        <time>2012-03-09T21:41:41Z</time>
      </trkpt>
      <trkpt lat="52.23731900" lon="9.620754000">
        <ele>108.66400</ele>
        <time>2012-03-09T21:41:46Z</time>
      </trkpt>
      <trkpt lat="52.23714900" lon="9.620938000">
        <ele>110.31000</ele>
        <time>2012-03-09T21:41:54Z</time>
      </trkpt>
      <trkpt lat="52.23702100" lon="9.621070000">
        <ele>111.42500</ele>
        <time>2012-03-09T21:42:01Z</time>
      </trkpt>
      <trkpt lat="52.23693400" lon="9.621157000">
        <ele>113.70500</ele>
        <time>2012-03-09T21:42:05Z</time>
      </trkpt>
      <trkpt lat="52.23675100" lon="9.621340000">
        <ele>115.64700</ele>
        <time>2012-03-09T21:42:13Z</time>
      </trkpt>
      <trkpt lat="52.23666600" lon="9.621425000">
        <ele>116.63600</ele>
        <time>2012-03-09T21:42:17Z</time>
      </trkpt>
      <trkpt lat="52.23663100" lon="9.621461000">
        <ele>116.31300</ele>
        <time>2012-03-09T21:42:19Z</time>
      </trkpt>
      <trkpt lat="52.23650800" lon="9.621500000">
        <ele>116.27600</ele>
        <time>2012-03-09T21:42:24Z</time>
      </trkpt>
      <trkpt lat="52.23638600" lon="9.621522000">
        <ele>117.53900</ele>
        <time>2012-03-09T21:42:29Z</time>
      </trkpt>
      <trkpt lat="52.23626500" lon="9.621544000">
        <ele>119.19900</ele>
        <time>2012-03-09T21:42:34Z</time>
      </trkpt>
      <trkpt lat="52.23612200" lon="9.621571000">
        <ele>121.12200</ele>
        <time>2012-03-09T21:42:39Z</time>
      </trkpt>
      <trkpt lat="52.23607900" lon="9.621579000">
        <ele>121.83300</ele>
        <time>2012-03-09T21:42:41Z</time>
      </trkpt>
      <trkpt lat="52.23597100" lon="9.621598000">
        <ele>123.08800</ele>
        <time>2012-03-09T21:42:46Z</time>
      </trkpt>
      <trkpt lat="52.23578700" lon="9.621632000">
        <ele>123.97100</ele>
        <time>2012-03-09T21:42:53Z</time>
      </trkpt>
      <trkpt lat="52.23550000" lon="9.621685000">
        <ele>126.60500</ele>
        <time>2012-03-09T21:43:04Z</time>
      </trkpt>
      <trkpt lat="52.23540000" lon="9.621704000">
        <ele>127.75500</ele>
        <time>2012-03-09T21:43:09Z</time>
      </trkpt>
      <trkpt lat="52.23525400" lon="9.621731000">
        <ele>128.65800</ele>
        <time>2012-03-09T21:43:14Z</time>
      </trkpt>
      <trkpt lat="52.23517100" lon="9.621746000">
        <ele>130.31200</ele>
        <time>2012-03-09T21:43:18Z</time>
      </trkpt>
      <trkpt lat="52.23514900" lon="9.621750000">
        <ele>132.19900</ele>
        <time>2012-03-09T21:43:19Z</time>
      </trkpt>
      <trkpt lat="52.23506600" lon="9.621765000">
        <ele>132.84900</ele>
        <time>2012-03-09T21:43:22Z</time>
      </trkpt>
      <trkpt lat="52.23492200" lon="9.621792000">
        <ele>133.84000</ele>
        <time>2012-03-09T21:43:28Z</time>
      </trkpt>
      <trkpt lat="52.23487700" lon="9.621800000">
        <ele>134.53700</ele>
        <time>2012-03-09T21:43:30Z</time>
      </trkpt>
      <trkpt lat="52.23462400" lon="9.621847000">
        <ele>137.42000</ele>
        <time>2012-03-09T21:43:40Z</time>
      </trkpt>
      <trkpt lat="52.23449200" lon="9.621871000">
        <ele>138.53300</ele>
        <time>2012-03-09T21:43:45Z</time>
      </trkpt>
      <trkpt lat="52.23432500" lon="9.621930000">
        <ele>139.79000</ele>
        <time>2012-03-09T21:43:52Z</time>
      </trkpt>
      <trkpt lat="52.23427600" lon="9.621949000">
        <ele>140.32700</ele>
        <time>2012-03-09T21:43:54Z</time>
      </trkpt>
      <trkpt lat="52.23422300" lon="9.621970000">
        <ele>140.61700</ele>
        <time>2012-03-09T21:43:56Z</time>
      </trkpt>
      <trkpt lat="52.23387800" lon="9.622258000">
        <ele>142.31400</ele>
        <time>2012-03-09T21:44:12Z</time>
      </trkpt>
      <trkpt lat="52.23383500" lon="9.622297000">
        <ele>143.25700</ele>
        <time>2012-03-09T21:44:14Z</time>
      </trkpt>
      <trkpt lat="52.23368700" lon="9.622429000">
        <ele>144.09200</ele>
        <time>2012-03-09T21:44:20Z</time>
      </trkpt>
      <trkpt lat="52.23359800" lon="9.622508000">
        <ele>144.78400</ele>
        <time>2012-03-09T21:44:24Z</time>
      </trkpt>
      <trkpt lat="52.23346100" lon="9.622630000">
        <ele>146.22700</ele>
        <time>2012-03-09T21:44:31Z</time>
      </trkpt>
      <trkpt lat="52.23336800" lon="9.622712000">
        <ele>148.59200</ele>
        <time>2012-03-09T21:44:35Z</time>
      </trkpt>
      <trkpt lat="52.23315400" lon="9.622716000">
        <ele>147.30800</ele>
        <time>2012-03-09T21:44:43Z</time>
      </trkpt>
      <trkpt lat="52.23302300" lon="9.622713000">
        <ele>147.26300</ele>
        <time>2012-03-09T21:44:49Z</time>
      </trkpt>
      <trkpt lat="52.23290000" lon="9.622711000">
        <ele>148.19000</ele>
        <time>2012-03-09T21:44:54Z</time>
      </trkpt>
      <trkpt lat="52.23281700" lon="9.622709000">
        <ele>148.10000</ele>
        <time>2012-03-09T21:44:57Z</time>
      </trkpt>
      <trkpt lat="52.23270400" lon="9.622707000">
        <ele>148.91400</ele>
        <time>2012-03-09T21:45:01Z</time>
      </trkpt>
      <trkpt lat="52.23258200" lon="9.622705000">
        <ele>148.22200</ele>
        <time>2012-03-09T21:45:06Z</time>
      </trkpt>
      <trkpt lat="52.23248100" lon="9.622703000">
        <ele>148.32200</ele>
        <time>2012-03-09T21:45:10Z</time>
      </trkpt>
      <trkpt lat="52.23230800" lon="9.622700000">
        <ele>148.34600</ele>
        <time>2012-03-09T21:45:17Z</time>
      </trkpt>
      <trkpt lat="52.23212500" lon="9.622696000">
        <ele>148.47600</ele>
        <time>2012-03-09T21:45:25Z</time>
      </trkpt>
      <trkpt lat="52.23199600" lon="9.622694000">
        <ele>148.62900</ele>
        <time>2012-03-09T21:45:30Z</time>
      </trkpt>
      <trkpt lat="52.23184300" lon="9.622691000">
        <ele>148.01600</ele>
        <time>2012-03-09T21:45:36Z</time>
      </trkpt>
      <trkpt lat="52.23169600" lon="9.622688000">
        <ele>147.65500</ele>
        <time>2012-03-09T21:45:42Z</time>
      </trkpt>
      <trkpt lat="52.23166500" lon="9.622688000">
        <ele>147.86000</ele>
        <time>2012-03-09T21:45:43Z</time>
      </trkpt>
      <trkpt lat="52.23149600" lon="9.622292000">
        <ele>148.31400</ele>
        <time>2012-03-09T21:45:55Z</time>
      </trkpt>
      <trkpt lat="52.23142900" lon="9.622135000">
        <ele>148.60000</ele>
        <time>2012-03-09T21:46:00Z</time>
      </trkpt>
      <trkpt lat="52.23139900" lon="9.622065000">
        <ele>149.63600</ele>
        <time>2012-03-09T21:46:02Z</time>
      </trkpt>
      <trkpt lat="52.23134400" lon="9.621936000">
        <ele>149.82700</ele>
        <time>2012-03-09T21:46:06Z</time>
      </trkpt>
      <trkpt lat="52.23126300" lon="9.621746000">
        <ele>150.53100</ele>
        <time>2012-03-09T21:46:11Z</time>
      </trkpt>
      <trkpt lat="52.23118900" lon="9.621571000">
        <ele>151.50900</ele>
        <time>2012-03-09T21:46:16Z</time>
      </trkpt>
      <trkpt lat="52.23107800" lon="9.621311000">
        <ele>152.74200</ele>
        <time>2012-03-09T21:46:24Z</time>
      </trkpt>
      <trkpt lat="52.23101600" lon="9.621165000">
        <ele>153.50800</ele>
        <time>2012-03-09T21:46:29Z</time>
      </trkpt>
      <trkpt lat="52.23092100" lon="9.620942000">
        <ele>154.41100</ele>
        <time>2012-03-09T21:46:35Z</time>
      </trkpt>
      <trkpt lat="52.23084300" lon="9.620761000">
        <ele>155.50000</ele>
        <time>2012-03-09T21:46:41Z</time>
      </trkpt>
      <trkpt lat="52.23077700" lon="9.620605000">
        <ele>156.06900</ele>
        <time>2012-03-09T21:46:45Z</time>
      </trkpt>
      <trkpt lat="52.23065900" lon="9.620328000">
        <ele>157.19800</ele>
        <time>2012-03-09T21:46:54Z</time>
      </trkpt>
      <trkpt lat="52.23060800" lon="9.620209000">
        <ele>157.54700</ele>
        <time>2012-03-09T21:46:57Z</time>
      </trkpt>
      <trkpt lat="52.23054700" lon="9.620066000">
        <ele>159.17400</ele>
        <time>2012-03-09T21:47:01Z</time>
      </trkpt>
      <trkpt lat="52.23044300" lon="9.619822000">
        <ele>160.14700</ele>
        <time>2012-03-09T21:47:09Z</time>
      </trkpt>
      <trkpt lat="52.23037100" lon="9.619653000">
        <ele>161.13200</ele>
        <time>2012-03-09T21:47:14Z</time>
      </trkpt>
      <trkpt lat="52.23022800" lon="9.619319000">
        <ele>161.45900</ele>
        <time>2012-03-09T21:47:24Z</time>
      </trkpt>
      <trkpt lat="52.23011600" lon="9.619056000">
        <ele>163.14600</ele>
        <time>2012-03-09T21:47:32Z</time>
      </trkpt>
      <trkpt lat="52.23010400" lon="9.619026000">
        <ele>163.06100</ele>
        <time>2012-03-09T21:47:32Z</time>
      </trkpt>
      <trkpt lat="52.23003700" lon="9.618869000">
        <ele>164.26900</ele>
        <time>2012-03-09T21:47:37Z</time>
      </trkpt>
      <trkpt lat="52.22993200" lon="9.618623000">
        <ele>164.57200</ele>
        <time>2012-03-09T21:47:44Z</time>
      </trkpt>
      <trkpt lat="52.22982900" lon="9.618382000">
        <ele>165.23700</ele>
        <time>2012-03-09T21:47:52Z</time>
      </trkpt>
      <trkpt lat="52.22977400" lon="9.618254000">
        <ele>166.56900</ele>
        <time>2012-03-09T21:47:56Z</time>
      </trkpt>
      <trkpt lat="52.22970000" lon="9.618080000">
        <ele>167.49700</ele>
        <time>2012-03-09T21:48:01Z</time>
      </trkpt>
      <trkpt lat="52.22959700" lon="9.617839000">
        <ele>167.01200</ele>
        <time>2012-03-09T21:48:08Z</time>
      </trkpt>
      <trkpt lat="52.22951500" lon="9.617646000">
        <ele>168.15600</ele>
        <time>2012-03-09T21:48:14Z</time>
      </trkpt>
      <trkpt lat="52.22941800" lon="9.617410000">
        <ele>168.83600</ele>
        <time>2012-03-09T21:48:21Z</time>
      </trkpt>
      <trkpt lat="52.22929700" lon="9.617238000">
        <ele>169.38400</ele>
        <time>2012-03-09T21:48:27Z</time>
      </trkpt>
      <trkpt lat="52.22910200" lon="9.617147000">
        <ele>169.80000</ele>
        <time>2012-03-09T21:48:35Z</time>
      </trkpt>
      <trkpt lat="52.22888800" lon="9.617111000">
        <ele>171.00200</ele>
        <time>2012-03-09T21:48:44Z</time>
      </trkpt>
      <trkpt lat="52.22872100" lon="9.617139000">
        <ele>171.07000</ele>
        <time>2012-03-09T21:48:51Z</time>
      </trkpt>
      <trkpt lat="52.22853800" lon="9.617229000">
        <ele>171.94800</ele>
        <time>2012-03-09T21:48:58Z</time>
      </trkpt>
      <trkpt lat="52.22840700" lon="9.617392000">
        <ele>172.84900</ele>
        <time>2012-03-09T21:49:05Z</time>
      </trkpt>
      <trkpt lat="52.22827000" lon="9.617578000">
        <ele>173.84400</ele>
        <time>2012-03-09T21:49:12Z</time>
      </trkpt>
      <trkpt lat="52.22813000" lon="9.617789000">
        <ele>174.13400</ele>
        <time>2012-03-09T21:49:20Z</time>
      </trkpt>
      <trkpt lat="52.22800700" lon="9.617976000">
        <ele>174.35600</ele>
        <time>2012-03-09T21:49:26Z</time>
      </trkpt>
      <trkpt lat="52.22788100" lon="9.618163000">
        <ele>175.21700</ele>
        <time>2012-03-09T21:49:33Z</time>
      </trkpt>
      <trkpt lat="52.22778000" lon="9.618280000">
        <ele>175.00600</ele>
        <time>2012-03-09T21:49:38Z</time>
      </trkpt>
      <trkpt lat="52.22760400" lon="9.618388000">
        <ele>174.82800</ele>
        <time>2012-03-09T21:49:46Z</time>
      </trkpt>
      <trkpt lat="52.22750000" lon="9.618452000">
        <ele>175.09200</ele>
        <time>2012-03-09T21:49:50Z</time>
      </trkpt>
      <trkpt lat="52.22735300" lon="9.618609000">
        <ele>174.53300</ele>
        <time>2012-03-09T21:49:57Z</time>
      </trkpt>
      <trkpt lat="52.22725900" lon="9.618773000">
        <ele>174.44300</ele>
        <time>2012-03-09T21:50:03Z</time>
      </trkpt>
      <trkpt lat="52.22712500" lon="9.618946000">
        <ele>173.87600</ele>
        <time>2012-03-09T21:50:09Z</time>
      </trkpt>
      <trkpt lat="52.22689300" lon="9.618941000">
        <ele>173.32600</ele>
        <time>2012-03-09T21:50:19Z</time>
      </trkpt>
      <trkpt lat="52.22678800" lon="9.618745000">
        <ele>173.45100</ele>
        <time>2012-03-09T21:50:25Z</time>
      </trkpt>
      <trkpt lat="52.22667900" lon="9.618525000">
        <ele>172.15200</ele>
        <time>2012-03-09T21:50:32Z</time>
      </trkpt>
      <trkpt lat="52.22662200" lon="9.618488000">
        <ele>171.36400</ele>
        <time>2012-03-09T21:50:34Z</time>
      </trkpt>
      <trkpt lat="52.22641500" lon="9.618379000">
        <ele>169.72700</ele>
        <time>2012-03-09T21:50:43Z</time>
      </trkpt>
      <trkpt lat="52.22632700" lon="9.618348000">
        <ele>168.12800</ele>
        <time>2012-03-09T21:50:47Z</time>
      </trkpt>
      <trkpt lat="52.22601800" lon="9.618185000">
        <ele>166.16200</ele>
        <time>2012-03-09T21:51:00Z</time>
      </trkpt>
      <trkpt lat="52.22583900" lon="9.617945000">
        <ele>165.38400</ele>
        <time>2012-03-09T21:51:09Z</time>
      </trkpt>
      <trkpt lat="52.22578100" lon="9.617850000">
        <ele>164.16000</ele>
        <time>2012-03-09T21:51:12Z</time>
      </trkpt>
      <trkpt lat="52.22565900" lon="9.617473000">
        <ele>161.77400</ele>
        <time>2012-03-09T21:51:23Z</time>
      </trkpt>
      <trkpt lat="52.22558500" lon="9.617245000">
        <ele>160.13200</ele>
        <time>2012-03-09T21:51:29Z</time>
      </trkpt>
      <trkpt lat="52.22548300" lon="9.616934000">
        <ele>157.94300</ele>
        <time>2012-03-09T21:51:38Z</time>
      </trkpt>
      <trkpt lat="52.22541700" lon="9.616733000">
        <ele>156.17400</ele>
        <time>2012-03-09T21:51:43Z</time>
      </trkpt>
      <trkpt lat="52.22530400" lon="9.616336000">
        <ele>154.28800</ele>
        <time>2012-03-09T21:51:54Z</time>
      </trkpt>
      <trkpt lat="52.22519800" lon="9.615959000">
        <ele>153.30500</ele>
        <time>2012-03-09T21:52:04Z</time>
      </trkpt>
      <trkpt lat="52.22511000" lon="9.615647000">
        <ele>150.98500</ele>
        <time>2012-03-09T21:52:13Z</time>
      </trkpt>
      <trkpt lat="52.22500500" lon="9.615272000">
        <ele>149.96400</ele>
        <time>2012-03-09T21:52:23Z</time>
      </trkpt>
      <trkpt lat="52.22491900" lon="9.614966000">
        <ele>148.47700</ele>
        <time>2012-03-09T21:52:31Z</time>
      </trkpt>
      <trkpt lat="52.22482100" lon="9.614617000">
        <ele>147.06100</ele>
        <time>2012-03-09T21:52:40Z</time>
      </trkpt>
      <trkpt lat="52.22470400" lon="9.614199000">
        <ele>145.95700</ele>
        <time>2012-03-09T21:52:52Z</time>
      </trkpt>
      <trkpt lat="52.22465000" lon="9.613979000">
        <ele>146.05200</ele>
        <time>2012-03-09T21:52:58Z</time>
      </trkpt>
      <trkpt lat="52.22461200" lon="9.613775000">
        <ele>147.23300</ele>
        <time>2012-03-09T21:53:03Z</time>
      </trkpt>
      <trkpt lat="52.22491700" lon="9.613561000">
        <ele>149.21800</ele>
        <time>2012-03-09T21:53:16Z</time>
      </trkpt>
      <trkpt lat="52.22497500" lon="9.613282000">
        <ele>151.70800</ele>
        <time>2012-03-09T21:53:23Z</time>
      </trkpt>
      <trkpt lat="52.22497900" lon="9.613259000">
        <ele>151.22300</ele>
        <time>2012-03-09T21:53:24Z</time>
      </trkpt>
      <trkpt lat="52.22502200" lon="9.613014000">
        <ele>153.64900</ele>
        <time>2012-03-09T21:53:30Z</time>
      </trkpt>
      <trkpt lat="52.22506100" lon="9.612790000">
        <ele>155.08500</ele>
        <time>2012-03-09T21:53:36Z</time>
      </trkpt>
      <trkpt lat="52.22508200" lon="9.612667000">
        <ele>155.69400</ele>
        <time>2012-03-09T21:53:39Z</time>
      </trkpt>
      <trkpt lat="52.22512100" lon="9.612443000">
        <ele>156.94200</ele>
        <time>2012-03-09T21:53:45Z</time>
      </trkpt>
      <trkpt lat="52.22516600" lon="9.612189000">
        <ele>158.65400</ele>
        <time>2012-03-09T21:53:51Z</time>
      </trkpt>
      <trkpt lat="52.22520400" lon="9.612000000">
        <ele>159.80400</ele>
        <time>2012-03-09T21:53:56Z</time>
      </trkpt>
      <trkpt lat="52.22525000" lon="9.611777000">
        <ele>161.69900</ele>
        <time>2012-03-09T21:54:02Z</time>
      </trkpt>
      <trkpt lat="52.22525600" lon="9.611748000">
        <ele>161.80000</ele>
        <time>2012-03-09T21:54:03Z</time>
      </trkpt>
      <trkpt lat="52.22531100" lon="9.611481000">
        <ele>163.24400</ele>
        <time>2012-03-09T21:54:09Z</time>
      </trkpt>
      <trkpt lat="52.22535000" lon="9.611322000">
        <ele>164.11100</ele>
        <time>2012-03-09T21:54:14Z</time>
      </trkpt>
      <trkpt lat="52.22541500" lon="9.611076000">
        <ele>166.02800</ele>
        <time>2012-03-09T21:54:20Z</time>
      </trkpt>
      <trkpt lat="52.22546200" lon="9.610895000">
        <ele>167.11200</ele>
        <time>2012-03-09T21:54:25Z</time>
      </trkpt>
      <trkpt lat="52.22550400" lon="9.610734000">
        <ele>168.18500</ele>
        <time>2012-03-09T21:54:29Z</time>
      </trkpt>
      <trkpt lat="52.22557000" lon="9.610472000">
        <ele>170.32100</ele>
        <time>2012-03-09T21:54:36Z</time>
      </trkpt>
      <trkpt lat="52.22563000" lon="9.610227000">
        <ele>171.70500</ele>
        <time>2012-03-09T21:54:43Z</time>
      </trkpt>
      <trkpt lat="52.22567500" lon="9.610041000">
        <ele>172.85600</ele>
        <time>2012-03-09T21:54:48Z</time>
      </trkpt>
      <trkpt lat="52.22574000" lon="9.609775000">
        <ele>174.47900</ele>
        <time>2012-03-09T21:54:55Z</time>
      </trkpt>
      <trkpt lat="52.22577300" lon="9.609639000">
        <ele>175.27100</ele>
        <time>2012-03-09T21:54:58Z</time>
      </trkpt>
      <trkpt lat="52.22582900" lon="9.609409000">
        <ele>176.28500</ele>
        <time>2012-03-09T21:55:04Z</time>
      </trkpt>
      <trkpt lat="52.22585300" lon="9.609309000">
        <ele>176.39900</ele>
        <time>2012-03-09T21:55:07Z</time>
      </trkpt>
      <trkpt lat="52.22591100" lon="9.609019000">
        <ele>177.16600</ele>
        <time>2012-03-09T21:55:14Z</time>
      </trkpt>
      <trkpt lat="52.22594300" lon="9.608863000">
        <ele>178.08900</ele>
        <time>2012-03-09T21:55:18Z</time>
      </trkpt>
      <trkpt lat="52.22599900" lon="9.608535000">
        <ele>179.00800</ele>
        <time>2012-03-09T21:55:27Z</time>
      </trkpt>
      <trkpt lat="52.22602400" lon="9.608283000">
        <ele>179.66600</ele>
        <time>2012-03-09T21:55:33Z</time>
      </trkpt>
      <trkpt lat="52.22604800" lon="9.608040000">
        <ele>180.34100</ele>
        <time>2012-03-09T21:55:39Z</time>
      </trkpt>
      <trkpt lat="52.22606800" lon="9.607842000">
        <ele>181.13700</ele>
        <time>2012-03-09T21:55:44Z</time>
      </trkpt>
      <trkpt lat="52.22609600" lon="9.607565000">
        <ele>181.92500</ele>
        <time>2012-03-09T21:55:51Z</time>
      </trkpt>
      <trkpt lat="52.22612300" lon="9.607291000">
        <ele>183.00900</ele>
        <time>2012-03-09T21:55:58Z</time>
      </trkpt>
      <trkpt lat="52.22614500" lon="9.607067000">
        <ele>183.42900</ele>
        <time>2012-03-09T21:56:03Z</time>
      </trkpt>
      <trkpt lat="52.22616000" lon="9.606918000">
        <ele>183.70200</ele>
        <time>2012-03-09T21:56:07Z</time>
      </trkpt>
      <trkpt lat="52.22618000" lon="9.606716000">
        <ele>185.02300</ele>
        <time>2012-03-09T21:56:12Z</time>
      </trkpt>
      <trkpt lat="52.22621600" lon="9.606423000">
        <ele>185.44900</ele>
        <time>2012-03-09T21:56:19Z</time>
      </trkpt>
      <trkpt lat="52.22623500" lon="9.606279000">
        <ele>185.64700</ele>
        <time>2012-03-09T21:56:23Z</time>
      </trkpt>
      <trkpt lat="52.22627200" lon="9.605992000">
        <ele>186.56900</ele>
        <time>2012-03-09T21:56:30Z</time>
      </trkpt>
      <trkpt lat="52.22633600" lon="9.605830000">
        <ele>186.76200</ele>
        <time>2012-03-09T21:56:35Z</time>
      </trkpt>
      <trkpt lat="52.22638900" lon="9.605701000">
        <ele>187.63500</ele>
        <time>2012-03-09T21:56:39Z</time>
      </trkpt>
      <trkpt lat="52.22644000" lon="9.605575000">
        <ele>187.38300</ele>
        <time>2012-03-09T21:56:42Z</time>
      </trkpt>
      <trkpt lat="52.22648000" lon="9.605465000">
        <ele>187.93000</ele>
        <time>2012-03-09T21:56:46Z</time>
      </trkpt>
      <trkpt lat="52.22654700" lon="9.605278000">
        <ele>189.08000</ele>
        <time>2012-03-09T21:56:51Z</time>
      </trkpt>
      <trkpt lat="52.22659900" lon="9.605137000">
        <ele>189.89400</ele>
        <time>2012-03-09T21:56:55Z</time>
      </trkpt>
      <trkpt lat="52.22670700" lon="9.604855000">
        <ele>190.97100</ele>
        <time>2012-03-09T21:57:03Z</time>
      </trkpt>
      <trkpt lat="52.22678800" lon="9.604645000">
        <ele>191.39000</ele>
        <time>2012-03-09T21:57:09Z</time>
      </trkpt>
      <trkpt lat="52.22685000" lon="9.604458000">
        <ele>192.33700</ele>
        <time>2012-03-09T21:57:14Z</time>
      </trkpt>
      <trkpt lat="52.22686100" lon="9.604426000">
        <ele>192.86800</ele>
        <time>2012-03-09T21:57:15Z</time>
      </trkpt>
      <trkpt lat="52.22694000" lon="9.604183000">
        <ele>193.46800</ele>
        <time>2012-03-09T21:57:22Z</time>
      </trkpt>
      <trkpt lat="52.22697900" lon="9.604061000">
        <ele>194.14800</ele>
        <time>2012-03-09T21:57:25Z</time>
      </trkpt>
      <trkpt lat="52.22702700" lon="9.603915000">
        <ele>194.97800</ele>
        <time>2012-03-09T21:57:29Z</time>
      </trkpt>
      <trkpt lat="52.22708200" lon="9.603747000">
        <ele>195.51500</ele>
        <time>2012-03-09T21:57:34Z</time>
      </trkpt>
      <trkpt lat="52.22711700" lon="9.603640000">
        <ele>195.67400</ele>
        <time>2012-03-09T21:57:37Z</time>
      </trkpt>
      <trkpt lat="52.22714200" lon="9.603566000">
        <ele>196.20100</ele>
        <time>2012-03-09T21:57:39Z</time>
      </trkpt>
      <trkpt lat="52.22720200" lon="9.603389000">
        <ele>196.78300</ele>
        <time>2012-03-09T21:57:44Z</time>
      </trkpt>
      <trkpt lat="52.22724200" lon="9.603268000">
        <ele>197.00700</ele>
        <time>2012-03-09T21:57:47Z</time>
      </trkpt>
      <trkpt lat="52.22730100" lon="9.603092000">
        <ele>198.24100</ele>
        <time>2012-03-09T21:57:52Z</time>
      </trkpt>
      <trkpt lat="52.22733200" lon="9.602991000">
        <ele>198.78000</ele>
        <time>2012-03-09T21:57:55Z</time>
      </trkpt>
      <trkpt lat="52.22738900" lon="9.602759000">
        <ele>200.32900</ele>
        <time>2012-03-09T21:58:01Z</time>
      </trkpt>
      <trkpt lat="52.22744000" lon="9.602556000">
        <ele>200.94500</ele>
        <time>2012-03-09T21:58:07Z</time>
      </trkpt>
      <trkpt lat="52.22749000" lon="9.602351000">
        <ele>201.97900</ele>
        <time>2012-03-09T21:58:12Z</time>
      </trkpt>
      <trkpt lat="52.22753200" lon="9.602179000">
        <ele>202.64400</ele>
        <time>2012-03-09T21:58:17Z</time>
      </trkpt>
      <trkpt lat="52.22756500" lon="9.602041000">
        <ele>203.13600</ele>
        <time>2012-03-09T21:58:20Z</time>
      </trkpt>
      <trkpt lat="52.22761300" lon="9.601845000">
        <ele>204.29600</ele>
        <time>2012-03-09T21:58:25Z</time>
      </trkpt>
      <trkpt lat="52.22765000" lon="9.601692000">
        <ele>204.76300</ele>
        <time>2012-03-09T21:58:29Z</time>
      </trkpt>
      <trkpt lat="52.22767900" lon="9.601573000">
        <ele>205.50400</ele>
        <time>2012-03-09T21:58:33Z</time>
      </trkpt>
      <trkpt lat="52.22774200" lon="9.601333000">
        <ele>206.16800</ele>
        <time>2012-03-09T21:58:39Z</time>
      </trkpt>
      <trkpt lat="52.22779900" lon="9.601119000">
        <ele>207.80600</ele>
        <time>2012-03-09T21:58:45Z</time>
      </trkpt>
      <trkpt lat="52.22783400" lon="9.600985000">
        <ele>207.88700</ele>
        <time>2012-03-09T21:58:48Z</time>
      </trkpt>
      <trkpt lat="52.22788200" lon="9.600866000">
        <ele>209.40000</ele>
        <time>2012-03-09T21:58:52Z</time>
      </trkpt>
      <trkpt lat="52.22793400" lon="9.600745000">
        <ele>210.01100</ele>
        <time>2012-03-09T21:58:55Z</time>
      </trkpt>
      <trkpt lat="52.22802900" lon="9.600526000">
        <ele>211.23100</ele>
        <time>2012-03-09T21:59:02Z</time>
      </trkpt>
      <trkpt lat="52.22813200" lon="9.600289000">
        <ele>212.63900</ele>
        <time>2012-03-09T21:59:09Z</time>
      </trkpt>
      <trkpt lat="52.22822600" lon="9.600112000">
        <ele>212.88900</ele>
        <time>2012-03-09T21:59:15Z</time>
      </trkpt>
      <trkpt lat="52.22827100" lon="9.600030000">
        <ele>213.57000</ele>
        <time>2012-03-09T21:59:18Z</time>
      </trkpt>
      <trkpt lat="52.22831600" lon="9.599946000">
        <ele>213.84700</ele>
        <time>2012-03-09T21:59:20Z</time>
      </trkpt>
      <trkpt lat="52.22837600" lon="9.599837000">
        <ele>214.45500</ele>
        <time>2012-03-09T21:59:24Z</time>
      </trkpt>
      <trkpt lat="52.22843400" lon="9.599730000">
        <ele>214.91000</ele>
        <time>2012-03-09T21:59:27Z</time>
      </trkpt>
      <trkpt lat="52.22849300" lon="9.599644000">
        <ele>214.89100</ele>
        <time>2012-03-09T21:59:31Z</time>
      </trkpt>
      <trkpt lat="52.22856900" lon="9.599537000">
        <ele>215.89100</ele>
        <time>2012-03-09T21:59:35Z</time>
      </trkpt>
      <trkpt lat="52.22864100" lon="9.599436000">
        <ele>216.06600</ele>
        <time>2012-03-09T21:59:38Z</time>
      </trkpt>
      <trkpt lat="52.22874100" lon="9.599297000">
        <ele>217.43600</ele>
        <time>2012-03-09T21:59:44Z</time>
      </trkpt>
      <trkpt lat="52.22878600" lon="9.599233000">
        <ele>217.50300</ele>
        <time>2012-03-09T21:59:46Z</time>
      </trkpt>
      <trkpt lat="52.22884800" lon="9.599171000">
        <ele>218.46000</ele>
        <time>2012-03-09T21:59:49Z</time>
      </trkpt>
      <trkpt lat="52.22901800" lon="9.599000000">
        <ele>219.51800</ele>
        <time>2012-03-09T21:59:57Z</time>
      </trkpt>
      <trkpt lat="52.22907700" lon="9.598941000">
        <ele>220.20000</ele>
        <time>2012-03-09T22:00:00Z</time>
      </trkpt>
      <trkpt lat="52.22917900" lon="9.598839000">
        <ele>221.06500</ele>
        <time>2012-03-09T22:00:04Z</time>
      </trkpt>
      <trkpt lat="52.22923000" lon="9.598788000">
        <ele>222.44800</ele>
        <time>2012-03-09T22:00:07Z</time>
      </trkpt>
      <trkpt lat="52.22940400" lon="9.598567000">
        <ele>223.64200</ele>
        <time>2012-03-09T22:00:16Z</time>
      </trkpt>
      <trkpt lat="52.22953000" lon="9.598343000">
        <ele>225.15300</ele>
        <time>2012-03-09T22:00:23Z</time>
      </trkpt>
      <trkpt lat="52.22957900" lon="9.598246000">
        <ele>225.29400</ele>
        <time>2012-03-09T22:00:26Z</time>
      </trkpt>
      <trkpt lat="52.22961300" lon="9.598176000">
        <ele>226.25800</ele>
        <time>2012-03-09T22:00:28Z</time>
      </trkpt>
      <trkpt lat="52.22966400" lon="9.598047000">
        <ele>226.21700</ele>
        <time>2012-03-09T22:00:32Z</time>
      </trkpt>
      <trkpt lat="52.22971600" lon="9.597848000">
        <ele>227.03000</ele>
        <time>2012-03-09T22:00:37Z</time>
      </trkpt>
      <trkpt lat="52.22976400" lon="9.597707000">
        <ele>228.31100</ele>
        <time>2012-03-09T22:00:41Z</time>
      </trkpt>
      <trkpt lat="52.22978000" lon="9.597663000">
        <ele>228.48100</ele>
        <time>2012-03-09T22:00:43Z</time>
      </trkpt>
      <trkpt lat="52.22981500" lon="9.597569000">
        <ele>229.50300</ele>
        <time>2012-03-09T22:00:45Z</time>
      </trkpt>
      <trkpt lat="52.22985000" lon="9.597480000">
        <ele>229.00200</ele>
        <time>2012-03-09T22:00:48Z</time>
      </trkpt>
      <trkpt lat="52.22987800" lon="9.597445000">
        <ele>230.63100</ele>
        <time>2012-03-09T22:00:49Z</time>
      </trkpt>
      <trkpt lat="52.23019600" lon="9.596989000">
        <ele>231.70700</ele>
        <time>2012-03-09T22:01:06Z</time>
      </trkpt>
      <trkpt lat="52.23023600" lon="9.596831000">
        <ele>232.41400</ele>
        <time>2012-03-09T22:01:11Z</time>
      </trkpt>
      <trkpt lat="52.23028500" lon="9.596642000">
        <ele>233.03900</ele>
        <time>2012-03-09T22:01:16Z</time>
      </trkpt>
      <trkpt lat="52.23029100" lon="9.596611000">
        <ele>233.22100</ele>
        <time>2012-03-09T22:01:16Z</time>
      </trkpt>
      <trkpt lat="52.23034300" lon="9.596305000">
        <ele>233.45900</ele>
        <time>2012-03-09T22:01:24Z</time>
      </trkpt>
      <trkpt lat="52.23035000" lon="9.596204000">
        <ele>233.12300</ele>
        <time>2012-03-09T22:01:27Z</time>
      </trkpt>
      <trkpt lat="52.23035900" lon="9.596059000">
        <ele>233.06000</ele>
        <time>2012-03-09T22:01:30Z</time>
      </trkpt>
      <trkpt lat="52.23036500" lon="9.595926000">
        <ele>233.43000</ele>
        <time>2012-03-09T22:01:33Z</time>
      </trkpt>
      <trkpt lat="52.23035700" lon="9.595748000">
        <ele>233.24400</ele>
        <time>2012-03-09T22:01:38Z</time>
      </trkpt>
      <trkpt lat="52.23036000" lon="9.595594000">
        <ele>233.01100</ele>
        <time>2012-03-09T22:01:42Z</time>
      </trkpt>
      <trkpt lat="52.23036400" lon="9.595488000">
        <ele>232.45600</ele>
        <time>2012-03-09T22:01:44Z</time>
      </trkpt>
      <trkpt lat="52.23037500" lon="9.595200000">
        <ele>232.53000</ele>
        <time>2012-03-09T22:01:51Z</time>
      </trkpt>
      <trkpt lat="52.23039900" lon="9.595023000">
        <ele>232.70100</ele>
        <time>2012-03-09T22:01:56Z</time>
      </trkpt>
      <trkpt lat="52.23044700" lon="9.594754000">
        <ele>232.57900</ele>
        <time>2012-03-09T22:02:03Z</time>
      </trkpt>
      <trkpt lat="52.23046100" lon="9.594680000">
        <ele>232.26200</ele>
        <time>2012-03-09T22:02:05Z</time>
      </trkpt>
      <trkpt lat="52.23049000" lon="9.594534000">
        <ele>232.02400</ele>
        <time>2012-03-09T22:02:08Z</time>
      </trkpt>
      <trkpt lat="52.23056300" lon="9.594236000">
        <ele>231.32200</ele>
        <time>2012-03-09T22:02:16Z</time>
      </trkpt>
      <trkpt lat="52.23062800" lon="9.593973000">
        <ele>232.70300</ele>
        <time>2012-03-09T22:02:23Z</time>
      </trkpt>
      <trkpt lat="52.23066900" lon="9.593803000">
        <ele>231.21900</ele>
        <time>2012-03-09T22:02:28Z</time>
      </trkpt>
      <trkpt lat="52.23073200" lon="9.593582000">
        <ele>230.90500</ele>
        <time>2012-03-09T22:02:34Z</time>
      </trkpt>
      <trkpt lat="52.23074200" lon="9.593552000">
        <ele>230.61500</ele>
        <time>2012-03-09T22:02:34Z</time>
      </trkpt>
      <trkpt lat="52.23077400" lon="9.593452000">
        <ele>230.76900</ele>
        <time>2012-03-09T22:02:37Z</time>
      </trkpt>
      <trkpt lat="52.23087100" lon="9.593274000">
        <ele>230.24500</ele>
        <time>2012-03-09T22:02:43Z</time>
      </trkpt>
      <trkpt lat="52.23091200" lon="9.593212000">
        <ele>230.05400</ele>
        <time>2012-03-09T22:02:45Z</time>
      </trkpt>
      <trkpt lat="52.23106100" lon="9.593036000">
        <ele>229.44900</ele>
        <time>2012-03-09T22:02:53Z</time>
      </trkpt>
      <trkpt lat="52.23120500" lon="9.592844000">
        <ele>229.24000</ele>
        <time>2012-03-09T22:03:00Z</time>
      </trkpt>
      <trkpt lat="52.23125500" lon="9.592749000">
        <ele>229.49300</ele>
        <time>2012-03-09T22:03:03Z</time>
      </trkpt>
      <trkpt lat="52.23132800" lon="9.592603000">
        <ele>229.29700</ele>
        <time>2012-03-09T22:03:08Z</time>
      </trkpt>
      <trkpt lat="52.23138300" lon="9.592458000">
        <ele>229.25500</ele>
        <time>2012-03-09T22:03:12Z</time>
      </trkpt>
      <trkpt lat="52.23140800" lon="9.592392000">
        <ele>229.18100</ele>
        <time>2012-03-09T22:03:14Z</time>
      </trkpt>
      <trkpt lat="52.23143000" lon="9.592334000">
        <ele>229.13000</ele>
        <time>2012-03-09T22:03:16Z</time>
      </trkpt>
      <trkpt lat="52.23148200" lon="9.592215000">
        <ele>228.78400</ele>
        <time>2012-03-09T22:03:19Z</time>
      </trkpt>
      <trkpt lat="52.23152600" lon="9.592127000">
        <ele>228.83000</ele>
        <time>2012-03-09T22:03:22Z</time>
      </trkpt>
      <trkpt lat="52.23161000" lon="9.591924000">
        <ele>228.35800</ele>
        <time>2012-03-09T22:03:28Z</time>
      </trkpt>
      <trkpt lat="52.23166100" lon="9.591694000">
        <ele>227.73700</ele>
        <time>2012-03-09T22:03:34Z</time>
      </trkpt>
      <trkpt lat="52.23169600" lon="9.591580000">
        <ele>228.02000</ele>
        <time>2012-03-09T22:03:37Z</time>
      </trkpt>
      <trkpt lat="52.23175900" lon="9.591429000">
        <ele>227.23100</ele>
        <time>2012-03-09T22:03:41Z</time>
      </trkpt>
      <trkpt lat="52.23186600" lon="9.591177000">
        <ele>226.99100</ele>
        <time>2012-03-09T22:03:49Z</time>
      </trkpt>
      <trkpt lat="52.23188700" lon="9.591125000">
        <ele>226.47400</ele>
        <time>2012-03-09T22:03:51Z</time>
      </trkpt>
      <trkpt lat="52.23198600" lon="9.590892000">
        <ele>227.03800</ele>
        <time>2012-03-09T22:03:57Z</time>
      </trkpt>
      <trkpt lat="52.23207100" lon="9.590683000">
        <ele>226.70100</ele>
        <time>2012-03-09T22:04:04Z</time>
      </trkpt>
      <trkpt lat="52.23209400" lon="9.590622000">
        <ele>226.97900</ele>
        <time>2012-03-09T22:04:05Z</time>
      </trkpt>
      <trkpt lat="52.23216300" lon="9.590440000">
        <ele>227.06500</ele>
        <time>2012-03-09T22:04:11Z</time>
      </trkpt>
      <trkpt lat="52.23221800" lon="9.590292000">
        <ele>226.60200</ele>
        <time>2012-03-09T22:04:15Z</time>
      </trkpt>
      <trkpt lat="52.23229700" lon="9.590081000">
        <ele>227.03400</ele>
        <time>2012-03-09T22:04:21Z</time>
      </trkpt>
      <trkpt lat="52.23238600" lon="9.589846000">
        <ele>226.76500</ele>
        <time>2012-03-09T22:04:28Z</time>
      </trkpt>
      <trkpt lat="52.23239700" lon="9.589817000">
        <ele>226.76100</ele>
        <time>2012-03-09T22:04:29Z</time>
      </trkpt>
      <trkpt lat="52.23244900" lon="9.589678000">
        <ele>225.69000</ele>
        <time>2012-03-09T22:04:33Z</time>
      </trkpt>
      <trkpt lat="52.23250600" lon="9.589526000">
        <ele>225.39300</ele>
        <time>2012-03-09T22:04:37Z</time>
      </trkpt>
      <trkpt lat="52.23252900" lon="9.589466000">
        <ele>225.65800</ele>
        <time>2012-03-09T22:04:39Z</time>
      </trkpt>
      <trkpt lat="52.23262700" lon="9.589221000">
        <ele>224.17300</ele>
        <time>2012-03-09T22:04:46Z</time>
      </trkpt>
      <trkpt lat="52.23270300" lon="9.589069000">
        <ele>223.42100</ele>
        <time>2012-03-09T22:04:51Z</time>
      </trkpt>
      <trkpt lat="52.23282700" lon="9.588824000">
        <ele>222.67300</ele>
        <time>2012-03-09T22:04:58Z</time>
      </trkpt>
      <trkpt lat="52.23284100" lon="9.588795000">
        <ele>222.80600</ele>
        <time>2012-03-09T22:04:59Z</time>
      </trkpt>
      <trkpt lat="52.23295800" lon="9.588563000">
        <ele>221.72900</ele>
        <time>2012-03-09T22:05:07Z</time>
      </trkpt>
      <trkpt lat="52.23305700" lon="9.588365000">
        <ele>221.76800</ele>
        <time>2012-03-09T22:05:13Z</time>
      </trkpt>
      <trkpt lat="52.23314400" lon="9.588187000">
        <ele>221.03100</ele>
        <time>2012-03-09T22:05:19Z</time>
      </trkpt>
      <trkpt lat="52.23324300" lon="9.587984000">
        <ele>220.56300</ele>
        <time>2012-03-09T22:05:25Z</time>
      </trkpt>
      <trkpt lat="52.23336000" lon="9.587747000">
        <ele>219.74000</ele>
        <time>2012-03-09T22:05:32Z</time>
      </trkpt>
      <trkpt lat="52.23348000" lon="9.587500000">
        <ele>218.76200</ele>
        <time>2012-03-09T22:05:40Z</time>
      </trkpt>
      <trkpt lat="52.23357000" lon="9.587309000">
        <ele>218.02500</ele>
        <time>2012-03-09T22:05:46Z</time>
      </trkpt>
      <trkpt lat="52.23362700" lon="9.587146000">
        <ele>217.53200</ele>
        <time>2012-03-09T22:05:51Z</time>
      </trkpt>
      <trkpt lat="52.23369400" lon="9.586952000">
        <ele>216.48400</ele>
        <time>2012-03-09T22:05:56Z</time>
      </trkpt>
      <trkpt lat="52.23370700" lon="9.586913000">
        <ele>216.43700</ele>
        <time>2012-03-09T22:05:57Z</time>
      </trkpt>
      <trkpt lat="52.23375200" lon="9.586716000">
        <ele>215.81600</ele>
        <time>2012-03-09T22:06:02Z</time>
      </trkpt>
      <trkpt lat="52.23360800" lon="9.586633000">
        <ele>214.87500</ele>
        <time>2012-03-09T22:06:08Z</time>
      </trkpt>
      <trkpt lat="52.23340700" lon="9.586806000">
        <ele>212.88900</ele>
        <time>2012-03-09T22:06:18Z</time>
      </trkpt>
      <trkpt lat="52.23323000" lon="9.586957000">
        <ele>210.72700</ele>
        <time>2012-03-09T22:06:26Z</time>
      </trkpt>
      <trkpt lat="52.23304900" lon="9.587112000">
        <ele>208.52600</ele>
        <time>2012-03-09T22:06:34Z</time>
      </trkpt>
      <trkpt lat="52.23289200" lon="9.587246000">
        <ele>207.08200</ele>
        <time>2012-03-09T22:06:41Z</time>
      </trkpt>
      <trkpt lat="52.23269800" lon="9.587373000">
        <ele>205.28400</ele>
        <time>2012-03-09T22:06:49Z</time>
      </trkpt>
      <trkpt lat="52.23249900" lon="9.587491000">
        <ele>203.27700</ele>
        <time>2012-03-09T22:06:58Z</time>
      </trkpt>
      <trkpt lat="52.23232000" lon="9.587585000">
        <ele>201.16700</ele>
        <time>2012-03-09T22:07:05Z</time>
      </trkpt>
      <trkpt lat="52.23215100" lon="9.587669000">
        <ele>200.32000</ele>
        <time>2012-03-09T22:07:12Z</time>
      </trkpt>
      <trkpt lat="52.23199200" lon="9.587776000">
        <ele>198.14200</ele>
        <time>2012-03-09T22:07:19Z</time>
      </trkpt>
      <trkpt lat="52.23185800" lon="9.587913000">
        <ele>196.84700</ele>
        <time>2012-03-09T22:07:25Z</time>
      </trkpt>
      <trkpt lat="52.23171800" lon="9.588054000">
        <ele>195.68100</ele>
        <time>2012-03-09T22:07:32Z</time>
      </trkpt>
      <trkpt lat="52.23156200" lon="9.588179000">
        <ele>194.00300</ele>
        <time>2012-03-09T22:07:39Z</time>
      </trkpt>
      <trkpt lat="52.23134900" lon="9.588292000">
        <ele>192.53100</ele>
        <time>2012-03-09T22:07:48Z</time>
      </trkpt>
      <trkpt lat="52.23121300" lon="9.588344000">
        <ele>191.56000</ele>
        <time>2012-03-09T22:07:54Z</time>
      </trkpt>
      <trkpt lat="52.23104900" lon="9.588441000">
        <ele>189.80100</ele>
        <time>2012-03-09T22:08:01Z</time>
      </trkpt>
      <trkpt lat="52.23091700" lon="9.588548000">
        <ele>189.64300</ele>
        <time>2012-03-09T22:08:06Z</time>
      </trkpt>
      <trkpt lat="52.23075000" lon="9.588722000">
        <ele>188.66100</ele>
        <time>2012-03-09T22:08:14Z</time>
      </trkpt>
      <trkpt lat="52.23059000" lon="9.588903000">
        <ele>187.49800</ele>
        <time>2012-03-09T22:08:22Z</time>
      </trkpt>
      <trkpt lat="52.23042000" lon="9.589036000">
        <ele>186.25500</ele>
        <time>2012-03-09T22:08:30Z</time>
      </trkpt>
      <trkpt lat="52.23026100" lon="9.589156000">
        <ele>184.80100</ele>
        <time>2012-03-09T22:08:37Z</time>
      </trkpt>
      <trkpt lat="52.23012800" lon="9.589257000">
        <ele>184.42200</ele>
        <time>2012-03-09T22:08:43Z</time>
      </trkpt>
      <trkpt lat="52.23006100" lon="9.589172000">
        <ele>182.59900</ele>
        <time>2012-03-09T22:08:46Z</time>
      </trkpt>
      <trkpt lat="52.23002200" lon="9.589104000">
        <ele>181.28100</ele>
        <time>2012-03-09T22:08:48Z</time>
      </trkpt>
      <trkpt lat="52.22998300" lon="9.589035000">
        <ele>179.80100</ele>
        <time>2012-03-09T22:08:51Z</time>
      </trkpt>
      <trkpt lat="52.22995000" lon="9.588976000">
        <ele>178.16400</ele>
        <time>2012-03-09T22:08:53Z</time>
      </trkpt>
      <trkpt lat="52.22991000" lon="9.588905000">
        <ele>176.86500</ele>
        <time>2012-03-09T22:08:55Z</time>
      </trkpt>
      <trkpt lat="52.22979600" lon="9.588703000">
        <ele>174.96400</ele>
        <time>2012-03-09T22:09:02Z</time>
      </trkpt>
      <trkpt lat="52.22963600" lon="9.588420000">
        <ele>172.45400</ele>
        <time>2012-03-09T22:09:11Z</time>
      </trkpt>
      <trkpt lat="52.22950800" lon="9.588192000">
        <ele>170.28800</ele>
        <time>2012-03-09T22:09:19Z</time>
      </trkpt>
      <trkpt lat="52.22934900" lon="9.587911000">
        <ele>167.80200</ele>
        <time>2012-03-09T22:09:28Z</time>
      </trkpt>
      <trkpt lat="52.22919700" lon="9.587642000">
        <ele>165.24200</ele>
        <time>2012-03-09T22:09:37Z</time>
      </trkpt>
      <trkpt lat="52.22908700" lon="9.587446000">
        <ele>163.19700</ele>
        <time>2012-03-09T22:09:44Z</time>
      </trkpt>
      <trkpt lat="52.22902400" lon="9.587334000">
        <ele>161.45900</ele>
        <time>2012-03-09T22:09:47Z</time>
      </trkpt>
      <trkpt lat="52.22892400" lon="9.587157000">
        <ele>159.96000</ele>
        <time>2012-03-09T22:09:53Z</time>
      </trkpt>
      <trkpt lat="52.22882700" lon="9.586986000">
        <ele>158.68000</ele>
        <time>2012-03-09T22:09:59Z</time>
      </trkpt>
      <trkpt lat="52.22867800" lon="9.586722000">
        <ele>156.23400</ele>
        <time>2012-03-09T22:10:08Z</time>
      </trkpt>
      <trkpt lat="52.22855600" lon="9.586504000">
        <ele>154.67500</ele>
        <time>2012-03-09T22:10:15Z</time>
      </trkpt>
      <trkpt lat="52.22851300" lon="9.586429000">
        <ele>153.81900</ele>
        <time>2012-03-09T22:10:17Z</time>
      </trkpt>
      <trkpt lat="52.22835500" lon="9.586150000">
        <ele>151.06900</ele>
        <time>2012-03-09T22:10:27Z</time>
      </trkpt>
      <trkpt lat="52.22823200" lon="9.585930000">
        <ele>149.78800</ele>
        <time>2012-03-09T22:10:34Z</time>
      </trkpt>
      <trkpt lat="52.22817200" lon="9.585824000">
        <ele>148.87800</ele>
        <time>2012-03-09T22:10:38Z</time>
      </trkpt>
      <trkpt lat="52.22805200" lon="9.585612000">
        <ele>147.33100</ele>
        <time>2012-03-09T22:10:45Z</time>
      </trkpt>
      <trkpt lat="52.22789800" lon="9.585339000">
        <ele>144.88500</ele>
        <time>2012-03-09T22:10:54Z</time>
      </trkpt>
      <trkpt lat="52.22777200" lon="9.585116000">
        <ele>142.42800</ele>
        <time>2012-03-09T22:11:01Z</time>
      </trkpt>
      <trkpt lat="52.22762400" lon="9.584854000">
        <ele>140.95800</ele>
        <time>2012-03-09T22:11:10Z</time>
      </trkpt>
      <trkpt lat="52.22751300" lon="9.584656000">
        <ele>139.33700</ele>
        <time>2012-03-09T22:11:17Z</time>
      </trkpt>
      <trkpt lat="52.22736000" lon="9.584385000">
        <ele>138.44800</ele>
        <time>2012-03-09T22:11:26Z</time>
      </trkpt>
      <trkpt lat="52.22716600" lon="9.584041000">
        <ele>136.91500</ele>
        <time>2012-03-09T22:11:37Z</time>
      </trkpt>
      <trkpt lat="52.22700500" lon="9.583756000">
        <ele>135.48400</ele>
        <time>2012-03-09T22:11:47Z</time>
      </trkpt>
      <trkpt lat="52.22687500" lon="9.583526000">
        <ele>134.72100</ele>
        <time>2012-03-09T22:11:54Z</time>
      </trkpt>
      <trkpt lat="52.22674200" lon="9.583290000">
        <ele>133.14300</ele>
        <time>2012-03-09T22:12:02Z</time>
      </trkpt>
      <trkpt lat="52.22659300" lon="9.583025000">
        <ele>132.73600</ele>
        <time>2012-03-09T22:12:11Z</time>
      </trkpt>
      <trkpt lat="52.22643000" lon="9.582736000">
        <ele>130.66100</ele>
        <time>2012-03-09T22:12:21Z</time>
      </trkpt>
      <trkpt lat="52.22627300" lon="9.582458000">
        <ele>128.98400</ele>
        <time>2012-03-09T22:12:30Z</time>
      </trkpt>
      <trkpt lat="52.22619800" lon="9.582326000">
        <ele>129.57000</ele>
        <time>2012-03-09T22:12:34Z</time>
      </trkpt>
      <trkpt lat="52.22642900" lon="9.581874000">
        <ele>129.53000</ele>
        <time>2012-03-09T22:12:49Z</time>
      </trkpt>
      <trkpt lat="52.22619800" lon="9.582326000">
        <ele>129.37100</ele>
        <time>2012-03-09T22:13:03Z</time>
      </trkpt>
      <trkpt lat="52.22668000" lon="9.581384000">
        <ele>129.72900</ele>
        <time>2012-03-09T22:13:33Z</time>
      </trkpt>
      <trkpt lat="52.22681300" lon="9.581124000">
        <ele>130.02000</ele>
        <time>2012-03-09T22:13:41Z</time>
      </trkpt>
      <trkpt lat="52.22689400" lon="9.580966000">
        <ele>130.31800</ele>
        <time>2012-03-09T22:13:47Z</time>
      </trkpt>
      <trkpt lat="52.22697100" lon="9.580815000">
        <ele>130.38000</ele>
        <time>2012-03-09T22:13:51Z</time>
      </trkpt>
      <trkpt lat="52.22705700" lon="9.580647000">
        <ele>130.54600</ele>
        <time>2012-03-09T22:13:57Z</time>
      </trkpt>
      <trkpt lat="52.22715200" lon="9.580461000">
        <ele>131.28400</ele>
        <time>2012-03-09T22:14:03Z</time>
      </trkpt>
      <trkpt lat="52.22725500" lon="9.580279000">
        <ele>131.07300</ele>
        <time>2012-03-09T22:14:09Z</time>
      </trkpt>
      <trkpt lat="52.22728800" lon="9.580223000">
        <ele>131.37400</ele>
        <time>2012-03-09T22:14:11Z</time>
      </trkpt>
      <trkpt lat="52.22736200" lon="9.580194000">
        <ele>130.54800</ele>
        <time>2012-03-09T22:14:14Z</time>
      </trkpt>
      <trkpt lat="52.22748300" lon="9.580091000">
        <ele>130.29000</ele>
        <time>2012-03-09T22:14:19Z</time>
      </trkpt>
      <trkpt lat="52.22751900" lon="9.579711000">
        <ele>130.13800</ele>
        <time>2012-03-09T22:14:29Z</time>
      </trkpt>
      <trkpt lat="52.22748600" lon="9.580219000">
        <ele>129.47700</ele>
        <time>2012-03-09T22:14:41Z</time>
      </trkpt>
      <trkpt lat="52.22749400" lon="9.580223000">
        <ele>129.08300</ele>
        <time>2012-03-09T22:14:41Z</time>
      </trkpt>
      <trkpt lat="52.22801500" lon="9.579926000">
        <ele>125.18300</ele>
        <time>2012-03-09T22:15:04Z</time>
      </trkpt>
      <trkpt lat="52.22886500" lon="9.580388000">
        <ele>140.22200</ele>
        <time>2012-03-09T22:15:39Z</time>
      </trkpt>
      <trkpt lat="52.22940300" lon="9.580612000">
        <ele>144.26800</ele>
        <time>2012-03-09T22:16:02Z</time>
      </trkpt>
      <trkpt lat="52.22980500" lon="9.580568000">
        <ele>145.25700</ele>
        <time>2012-03-09T22:16:18Z</time>
      </trkpt>
      <trkpt lat="52.23018700" lon="9.580676000">
        <ele>145.06000</ele>
        <time>2012-03-09T22:16:33Z</time>
      </trkpt>
      <trkpt lat="52.23036100" lon="9.580529000">
        <ele>143.73500</ele>
        <time>2012-03-09T22:16:41Z</time>
      </trkpt>
      <trkpt lat="52.23054700" lon="9.580465000">
        <ele>141.76100</ele>
        <time>2012-03-09T22:16:49Z</time>
      </trkpt>
      <trkpt lat="52.23063600" lon="9.580446000">
        <ele>142.05500</ele>
        <time>2012-03-09T22:16:52Z</time>
      </trkpt>
      <trkpt lat="52.23078200" lon="9.579805000">
        <ele>141.23900</ele>
        <time>2012-03-09T22:17:09Z</time>
      </trkpt>
      <trkpt lat="52.23113600" lon="9.579676000">
        <ele>139.86200</ele>
        <time>2012-03-09T22:17:24Z</time>
      </trkpt>
      <trkpt lat="52.23136000" lon="9.579594000">
        <ele>139.15500</ele>
        <time>2012-03-09T22:17:33Z</time>
      </trkpt>
      <trkpt lat="52.23153500" lon="9.579509000">
        <ele>140.66100</ele>
        <time>2012-03-09T22:17:40Z</time>
      </trkpt>
      <trkpt lat="52.23162400" lon="9.579375000">
        <ele>142.14900</ele>
        <time>2012-03-09T22:17:45Z</time>
      </trkpt>
      <trkpt lat="52.23174000" lon="9.579218000">
        <ele>143.23400</ele>
        <time>2012-03-09T22:17:51Z</time>
      </trkpt>
      <trkpt lat="52.23178100" lon="9.579141000">
        <ele>144.22200</ele>
        <time>2012-03-09T22:17:53Z</time>
      </trkpt>
      <trkpt lat="52.23188800" lon="9.579024000">
        <ele>145.98300</ele>
        <time>2012-03-09T22:17:59Z</time>
      </trkpt>
      <trkpt lat="52.23192200" lon="9.578901000">
        <ele>147.05200</ele>
        <time>2012-03-09T22:18:02Z</time>
      </trkpt>
      <trkpt lat="52.23194000" lon="9.578809000">
        <ele>147.83300</ele>
        <time>2012-03-09T22:18:04Z</time>
      </trkpt>
      <trkpt lat="52.23195100" lon="9.578715000">
        <ele>148.71000</ele>
        <time>2012-03-09T22:18:07Z</time>
      </trkpt>
      <trkpt lat="52.23199200" lon="9.578559000">
        <ele>149.61700</ele>
        <time>2012-03-09T22:18:11Z</time>
      </trkpt>
      <trkpt lat="52.23204300" lon="9.578542000">
        <ele>151.06700</ele>
        <time>2012-03-09T22:18:13Z</time>
      </trkpt>
      <trkpt lat="52.23205800" lon="9.578540000">
        <ele>151.08300</ele>
        <time>2012-03-09T22:18:13Z</time>
      </trkpt>
      <trkpt lat="52.23218100" lon="9.578511000">
        <ele>154.55200</ele>
        <time>2012-03-09T22:18:18Z</time>
      </trkpt>
      <trkpt lat="52.23225700" lon="9.578466000">
        <ele>155.97700</ele>
        <time>2012-03-09T22:18:22Z</time>
      </trkpt>
      <trkpt lat="52.23232200" lon="9.578440000">
        <ele>157.31400</ele>
        <time>2012-03-09T22:18:24Z</time>
      </trkpt>
      <trkpt lat="52.23238700" lon="9.578439000">
        <ele>158.64200</ele>
        <time>2012-03-09T22:18:27Z</time>
      </trkpt>
      <trkpt lat="52.23247000" lon="9.578425000">
        <ele>159.10000</ele>
        <time>2012-03-09T22:18:30Z</time>
      </trkpt>
      <trkpt lat="52.23263500" lon="9.578404000">
        <ele>161.60600</ele>
        <time>2012-03-09T22:18:37Z</time>
      </trkpt>
      <trkpt lat="52.23266200" lon="9.578383000">
        <ele>162.13000</ele>
        <time>2012-03-09T22:18:38Z</time>
      </trkpt>
      <trkpt lat="52.23285200" lon="9.578288000">
        <ele>164.24100</ele>
        <time>2012-03-09T22:18:46Z</time>
      </trkpt>
      <trkpt lat="52.23307100" lon="9.578345000">
        <ele>167.75800</ele>
        <time>2012-03-09T22:18:55Z</time>
      </trkpt>
      <trkpt lat="52.23320400" lon="9.578387000">
        <ele>169.67800</ele>
        <time>2012-03-09T22:19:00Z</time>
      </trkpt>
      <trkpt lat="52.23338900" lon="9.578442000">
        <ele>172.84700</ele>
        <time>2012-03-09T22:19:08Z</time>
      </trkpt>
      <trkpt lat="52.23367300" lon="9.578526000">
        <ele>176.20700</ele>
        <time>2012-03-09T22:19:19Z</time>
      </trkpt>
      <trkpt lat="52.23387400" lon="9.578573000">
        <ele>178.51600</ele>
        <time>2012-03-09T22:19:28Z</time>
      </trkpt>
      <trkpt lat="52.23399100" lon="9.578630000">
        <ele>180.52900</ele>
        <time>2012-03-09T22:19:33Z</time>
      </trkpt>
      <trkpt lat="52.23410200" lon="9.578646000">
        <ele>181.48800</ele>
        <time>2012-03-09T22:19:37Z</time>
      </trkpt>
      <trkpt lat="52.23422100" lon="9.578635000">
        <ele>183.11600</ele>
        <time>2012-03-09T22:19:42Z</time>
      </trkpt>
      <trkpt lat="52.23432900" lon="9.578600000">
        <ele>185.52000</ele>
        <time>2012-03-09T22:19:46Z</time>
      </trkpt>
      <trkpt lat="52.23441900" lon="9.578636000">
        <ele>187.69000</ele>
        <time>2012-03-09T22:19:50Z</time>
      </trkpt>
      <trkpt lat="52.23448600" lon="9.578709000">
        <ele>189.94500</ele>
        <time>2012-03-09T22:19:53Z</time>
      </trkpt>
      <trkpt lat="52.23457600" lon="9.578845000">
        <ele>193.27700</ele>
        <time>2012-03-09T22:19:58Z</time>
      </trkpt>
      <trkpt lat="52.23471200" lon="9.578943000">
        <ele>196.40800</ele>
        <time>2012-03-09T22:20:04Z</time>
      </trkpt>
      <trkpt lat="52.23482900" lon="9.579085000">
        <ele>198.32500</ele>
        <time>2012-03-09T22:20:10Z</time>
      </trkpt>
      <trkpt lat="52.23502400" lon="9.579281000">
        <ele>201.55800</ele>
        <time>2012-03-09T22:20:19Z</time>
      </trkpt>
      <trkpt lat="52.23524300" lon="9.579446000">
        <ele>203.11300</ele>
        <time>2012-03-09T22:20:29Z</time>
      </trkpt>
      <trkpt lat="52.23536900" lon="9.579532000">
        <ele>205.86000</ele>
        <time>2012-03-09T22:20:34Z</time>
      </trkpt>
      <trkpt lat="52.23555700" lon="9.579668000">
        <ele>209.30000</ele>
        <time>2012-03-09T22:20:42Z</time>
      </trkpt>
      <trkpt lat="52.23574900" lon="9.579793000">
        <ele>212.47400</ele>
        <time>2012-03-09T22:20:51Z</time>
      </trkpt>
      <trkpt lat="52.23579600" lon="9.579860000">
        <ele>214.14000</ele>
        <time>2012-03-09T22:20:53Z</time>
      </trkpt>
      <trkpt lat="52.23597000" lon="9.580045000">
        <ele>217.49400</ele>
        <time>2012-03-09T22:21:01Z</time>
      </trkpt>
      <trkpt lat="52.23626700" lon="9.580219000">
        <ele>220.04300</ele>
        <time>2012-03-09T22:21:14Z</time>
      </trkpt>
      <trkpt lat="52.23650200" lon="9.580289000">
        <ele>222.64900</ele>
        <time>2012-03-09T22:21:24Z</time>
      </trkpt>
      <trkpt lat="52.23652400" lon="9.580288000">
        <ele>223.43900</ele>
        <time>2012-03-09T22:21:24Z</time>
      </trkpt>
      <trkpt lat="52.23670000" lon="9.580328000">
        <ele>224.71600</ele>
        <time>2012-03-09T22:21:32Z</time>
      </trkpt>
      <trkpt lat="52.23673500" lon="9.580354000">
        <ele>225.80300</ele>
        <time>2012-03-09T22:21:33Z</time>
      </trkpt>
      <trkpt lat="52.23687100" lon="9.580366000">
        <ele>227.14300</ele>
        <time>2012-03-09T22:21:39Z</time>
      </trkpt>
      <trkpt lat="52.23699700" lon="9.580317000">
        <ele>230.42600</ele>
        <time>2012-03-09T22:21:44Z</time>
      </trkpt>
      <trkpt lat="52.23703900" lon="9.580305000">
        <ele>230.72600</ele>
        <time>2012-03-09T22:21:45Z</time>
      </trkpt>
      <trkpt lat="52.23716300" lon="9.580208000">
        <ele>233.58000</ele>
        <time>2012-03-09T22:21:51Z</time>
      </trkpt>
      <trkpt lat="52.23721500" lon="9.580180000">
        <ele>234.82700</ele>
        <time>2012-03-09T22:21:53Z</time>
      </trkpt>
      <trkpt lat="52.23733200" lon="9.580142000">
        <ele>235.23200</ele>
        <time>2012-03-09T22:21:58Z</time>
      </trkpt>
      <trkpt lat="52.23746400" lon="9.580074000">
        <ele>237.18900</ele>
        <time>2012-03-09T22:22:03Z</time>
      </trkpt>
      <trkpt lat="52.23758900" lon="9.580014000">
        <ele>238.94100</ele>
        <time>2012-03-09T22:22:09Z</time>
      </trkpt>
      <trkpt lat="52.23775700" lon="9.579973000">
        <ele>240.48200</ele>
        <time>2012-03-09T22:22:15Z</time>
      </trkpt>
      <trkpt lat="52.23786600" lon="9.579953000">
        <ele>241.50100</ele>
        <time>2012-03-09T22:22:20Z</time>
      </trkpt>
      <trkpt lat="52.23800100" lon="9.579940000">
        <ele>242.72000</ele>
        <time>2012-03-09T22:22:25Z</time>
      </trkpt>
      <trkpt lat="52.23808000" lon="9.579942000">
        <ele>244.80200</ele>
        <time>2012-03-09T22:22:28Z</time>
      </trkpt>
      <trkpt lat="52.23815400" lon="9.579974000">
        <ele>246.99500</ele>
        <time>2012-03-09T22:22:32Z</time>
      </trkpt>
      <trkpt lat="52.23831700" lon="9.580034000">
        <ele>249.45400</ele>
        <time>2012-03-09T22:22:38Z</time>
      </trkpt>
      <trkpt lat="52.23852900" lon="9.580091000">
        <ele>251.39200</ele>
        <time>2012-03-09T22:22:47Z</time>
      </trkpt>
      <trkpt lat="52.23864900" lon="9.580139000">
        <ele>251.88800</ele>
        <time>2012-03-09T22:22:52Z</time>
      </trkpt>
      <trkpt lat="52.23885100" lon="9.580214000">
        <ele>252.58700</ele>
        <time>2012-03-09T22:23:00Z</time>
      </trkpt>
      <trkpt lat="52.23896000" lon="9.580307000">
        <ele>252.88400</ele>
        <time>2012-03-09T22:23:05Z</time>
      </trkpt>
      <trkpt lat="52.23898300" lon="9.580299000">
        <ele>252.67100</ele>
        <time>2012-03-09T22:23:06Z</time>
      </trkpt>
      <trkpt lat="52.23897300" lon="9.580317000">
        <ele>253.08400</ele>
        <time>2012-03-09T22:23:06Z</time>
      </trkpt>
      <trkpt lat="52.23898000" lon="9.580307000">
        <ele>252.75700</ele>
        <time>2012-03-09T22:23:07Z</time>
      </trkpt>
      <trkpt lat="52.23902900" lon="9.580073000">
        <ele>250.69400</ele>
        <time>2012-03-09T22:23:13Z</time>
      </trkpt>
      <trkpt lat="52.23907000" lon="9.579907000">
        <ele>249.78100</ele>
        <time>2012-03-09T22:23:17Z</time>
      </trkpt>
      <trkpt lat="52.23919800" lon="9.579695000">
        <ele>248.30400</ele>
        <time>2012-03-09T22:23:25Z</time>
      </trkpt>
      <trkpt lat="52.23927400" lon="9.579459000">
        <ele>246.78700</ele>
        <time>2012-03-09T22:23:31Z</time>
      </trkpt>
      <trkpt lat="52.23928300" lon="9.579417000">
        <ele>246.76400</ele>
        <time>2012-03-09T22:23:32Z</time>
      </trkpt>
      <trkpt lat="52.23934100" lon="9.579200000">
        <ele>246.77800</ele>
        <time>2012-03-09T22:23:38Z</time>
      </trkpt>
      <trkpt lat="52.23938000" lon="9.578903000">
        <ele>247.66700</ele>
        <time>2012-03-09T22:23:45Z</time>
      </trkpt>
      <trkpt lat="52.23943200" lon="9.578732000">
        <ele>246.91500</ele>
        <time>2012-03-09T22:23:50Z</time>
      </trkpt>
      <trkpt lat="52.23942900" lon="9.578694000">
        <ele>246.68500</ele>
        <time>2012-03-09T22:23:51Z</time>
      </trkpt>
      <trkpt lat="52.23942800" lon="9.578449000">
        <ele>245.90600</ele>
        <time>2012-03-09T22:23:57Z</time>
      </trkpt>
      <trkpt lat="52.23944400" lon="9.578258000">
        <ele>245.97500</ele>
        <time>2012-03-09T22:24:02Z</time>
      </trkpt>
      <trkpt lat="52.23947500" lon="9.578005000">
        <ele>246.93500</ele>
        <time>2012-03-09T22:24:08Z</time>
      </trkpt>
      <trkpt lat="52.23946300" lon="9.577950000">
        <ele>246.29000</ele>
        <time>2012-03-09T22:24:10Z</time>
      </trkpt>
      <trkpt lat="52.23940800" lon="9.577781000">
        <ele>246.32300</ele>
        <time>2012-03-09T22:24:14Z</time>
      </trkpt>
      <trkpt lat="52.23939400" lon="9.577729000">
        <ele>246.18100</ele>
        <time>2012-03-09T22:24:16Z</time>
      </trkpt>
      <trkpt lat="52.23954300" lon="9.577552000">
        <ele>247.90500</ele>
        <time>2012-03-09T22:24:23Z</time>
      </trkpt>
      <trkpt lat="52.23949700" lon="9.577515000">
        <ele>248.49400</ele>
        <time>2012-03-09T22:24:25Z</time>
      </trkpt>
      <trkpt lat="52.23934900" lon="9.577422000">
        <ele>250.20800</ele>
        <time>2012-03-09T22:24:31Z</time>
      </trkpt>
      <trkpt lat="52.23915400" lon="9.577294000">
        <ele>251.16100</ele>
        <time>2012-03-09T22:24:40Z</time>
      </trkpt>
      <trkpt lat="52.23912100" lon="9.577250000">
        <ele>252.08900</ele>
        <time>2012-03-09T22:24:42Z</time>
      </trkpt>
      <trkpt lat="52.23910700" lon="9.577121000">
        <ele>253.06000</ele>
        <time>2012-03-09T22:24:45Z</time>
      </trkpt>
      <trkpt lat="52.23910600" lon="9.577032000">
        <ele>252.88900</ele>
        <time>2012-03-09T22:24:47Z</time>
      </trkpt>
      <trkpt lat="52.23911700" lon="9.576985000">
        <ele>253.87400</ele>
        <time>2012-03-09T22:24:48Z</time>
      </trkpt>
      <trkpt lat="52.23914700" lon="9.576944000">
        <ele>254.53100</ele>
        <time>2012-03-09T22:24:50Z</time>
      </trkpt>
      <trkpt lat="52.23916700" lon="9.576924000">
        <ele>254.44100</ele>
        <time>2012-03-09T22:24:51Z</time>
      </trkpt>
      <trkpt lat="52.23926400" lon="9.576819000">
        <ele>255.89000</ele>
        <time>2012-03-09T22:24:55Z</time>
      </trkpt>
      <trkpt lat="52.23930800" lon="9.576795000">
        <ele>256.18900</ele>
        <time>2012-03-09T22:24:57Z</time>
      </trkpt>
      <trkpt lat="52.23945000" lon="9.576669000">
        <ele>257.72300</ele>
        <time>2012-03-09T22:25:04Z</time>
      </trkpt>
      <trkpt lat="52.23949200" lon="9.576620000">
        <ele>257.46200</ele>
        <time>2012-03-09T22:25:06Z</time>
      </trkpt>
      <trkpt lat="52.23958200" lon="9.576407000">
        <ele>259.39600</ele>
        <time>2012-03-09T22:25:12Z</time>
      </trkpt>
      <trkpt lat="52.23962100" lon="9.576221000">
        <ele>261.46300</ele>
        <time>2012-03-09T22:25:17Z</time>
      </trkpt>
      <trkpt lat="52.23962400" lon="9.576153000">
        <ele>262.13600</ele>
        <time>2012-03-09T22:25:19Z</time>
      </trkpt>
      <trkpt lat="52.23962600" lon="9.576054000">
        <ele>263.26700</ele>
        <time>2012-03-09T22:25:21Z</time>
      </trkpt>
      <trkpt lat="52.23968200" lon="9.575925000">
        <ele>265.61400</ele>
        <time>2012-03-09T22:25:25Z</time>
      </trkpt>
      <trkpt lat="52.23973200" lon="9.575795000">
        <ele>267.81600</ele>
        <time>2012-03-09T22:25:29Z</time>
      </trkpt>
      <trkpt lat="52.23973700" lon="9.575714000">
        <ele>268.98600</ele>
        <time>2012-03-09T22:25:31Z</time>
      </trkpt>
      <trkpt lat="52.23975300" lon="9.575644000">
        <ele>269.82000</ele>
        <time>2012-03-09T22:25:32Z</time>
      </trkpt>
      <trkpt lat="52.23982900" lon="9.575524000">
        <ele>271.92400</ele>
        <time>2012-03-09T22:25:37Z</time>
      </trkpt>
      <trkpt lat="52.23983500" lon="9.575478000">
        <ele>272.75300</ele>
        <time>2012-03-09T22:25:38Z</time>
      </trkpt>
      <trkpt lat="52.23986800" lon="9.575294000">
        <ele>274.97500</ele>
        <time>2012-03-09T22:25:43Z</time>
      </trkpt>
      <trkpt lat="52.23988600" lon="9.575195000">
        <ele>275.52200</ele>
        <time>2012-03-09T22:25:45Z</time>
      </trkpt>
      <trkpt lat="52.23988700" lon="9.575056000">
        <ele>276.44500</ele>
        <time>2012-03-09T22:25:49Z</time>
      </trkpt>
      <trkpt lat="52.23989700" lon="9.574964000">
        <ele>278.19900</ele>
        <time>2012-03-09T22:25:51Z</time>
      </trkpt>
      <trkpt lat="52.23991800" lon="9.574759000">
        <ele>280.45000</ele>
        <time>2012-03-09T22:25:56Z</time>
      </trkpt>
      <trkpt lat="52.23991700" lon="9.574729000">
        <ele>280.46700</ele>
        <time>2012-03-09T22:25:57Z</time>
      </trkpt>
      <trkpt lat="52.23992000" lon="9.574531000">
        <ele>281.98200</ele>
        <time>2012-03-09T22:26:01Z</time>
      </trkpt>
      <trkpt lat="52.23993000" lon="9.574436000">
        <ele>283.74400</ele>
        <time>2012-03-09T22:26:04Z</time>
      </trkpt>
      <trkpt lat="52.23993400" lon="9.574338000">
        <ele>284.65600</ele>
        <time>2012-03-09T22:26:06Z</time>
      </trkpt>
      <trkpt lat="52.23992000" lon="9.574136000">
        <ele>286.78300</ele>
        <time>2012-03-09T22:26:11Z</time>
      </trkpt>
      <trkpt lat="52.23992000" lon="9.574109000">
        <ele>286.86400</ele>
        <time>2012-03-09T22:26:12Z</time>
      </trkpt>
      <trkpt lat="52.23991300" lon="9.573904000">
        <ele>288.68800</ele>
        <time>2012-03-09T22:26:17Z</time>
      </trkpt>
      <trkpt lat="52.23988400" lon="9.573706000">
        <ele>290.53200</ele>
        <time>2012-03-09T22:26:22Z</time>
      </trkpt>
      <trkpt lat="52.23979400" lon="9.573521000">
        <ele>292.83600</ele>
        <time>2012-03-09T22:26:28Z</time>
      </trkpt>
      <trkpt lat="52.23969700" lon="9.573347000">
        <ele>294.85000</ele>
        <time>2012-03-09T22:26:33Z</time>
      </trkpt>
      <trkpt lat="52.23961500" lon="9.573148000">
        <ele>297.39800</ele>
        <time>2012-03-09T22:26:39Z</time>
      </trkpt>
      <trkpt lat="52.23953700" lon="9.572951000">
        <ele>298.36500</ele>
        <time>2012-03-09T22:26:45Z</time>
      </trkpt>
      <trkpt lat="52.23942400" lon="9.572776000">
        <ele>300.99100</ele>
        <time>2012-03-09T22:26:51Z</time>
      </trkpt>
      <trkpt lat="52.23928400" lon="9.572655000">
        <ele>302.63300</ele>
        <time>2012-03-09T22:26:58Z</time>
      </trkpt>
      <trkpt lat="52.23922000" lon="9.572617000">
        <ele>304.37800</ele>
        <time>2012-03-09T22:27:00Z</time>
      </trkpt>
      <trkpt lat="52.23914200" lon="9.572551000">
        <ele>305.56700</ele>
        <time>2012-03-09T22:27:04Z</time>
      </trkpt>
      <trkpt lat="52.23897600" lon="9.572412000">
        <ele>306.83000</ele>
        <time>2012-03-09T22:27:11Z</time>
      </trkpt>
      <trkpt lat="52.23888100" lon="9.572292000">
        <ele>309.08200</ele>
        <time>2012-03-09T22:27:16Z</time>
      </trkpt>
      <trkpt lat="52.23879400" lon="9.572098000">
        <ele>310.33700</ele>
        <time>2012-03-09T22:27:22Z</time>
      </trkpt>
      <trkpt lat="52.23873000" lon="9.571969000">
        <ele>312.10300</ele>
        <time>2012-03-09T22:27:26Z</time>
      </trkpt>
      <trkpt lat="52.23866600" lon="9.571806000">
        <ele>312.89300</ele>
        <time>2012-03-09T22:27:31Z</time>
      </trkpt>
      <trkpt lat="52.23861900" lon="9.571593000">
        <ele>314.28000</ele>
        <time>2012-03-09T22:27:36Z</time>
      </trkpt>
      <trkpt lat="52.23859400" lon="9.571386000">
        <ele>314.42900</ele>
        <time>2012-03-09T22:27:42Z</time>
      </trkpt>
      <trkpt lat="52.23857000" lon="9.571171000">
        <ele>315.75100</ele>
        <time>2012-03-09T22:27:47Z</time>
      </trkpt>
      <trkpt lat="52.23856600" lon="9.570941000">
        <ele>317.16600</ele>
        <time>2012-03-09T22:27:53Z</time>
      </trkpt>
      <trkpt lat="52.23852200" lon="9.570756000">
        <ele>317.95300</ele>
        <time>2012-03-09T22:27:58Z</time>
      </trkpt>
      <trkpt lat="52.23846800" lon="9.570633000">
        <ele>319.38200</ele>
        <time>2012-03-09T22:28:01Z</time>
      </trkpt>
      <trkpt lat="52.23845500" lon="9.570611000">
        <ele>319.37900</ele>
        <time>2012-03-09T22:28:02Z</time>
      </trkpt>
      <trkpt lat="52.23838900" lon="9.570514000">
        <ele>321.73300</ele>
        <time>2012-03-09T22:28:06Z</time>
      </trkpt>
      <trkpt lat="52.23826400" lon="9.570247000">
        <ele>322.08400</ele>
        <time>2012-03-09T22:28:14Z</time>
      </trkpt>
      <trkpt lat="52.23819200" lon="9.570045000">
        <ele>323.11000</ele>
        <time>2012-03-09T22:28:19Z</time>
      </trkpt>
      <trkpt lat="52.23812900" lon="9.569902000">
        <ele>324.27400</ele>
        <time>2012-03-09T22:28:24Z</time>
      </trkpt>
      <trkpt lat="52.23807500" lon="9.569761000">
        <ele>325.49600</ele>
        <time>2012-03-09T22:28:28Z</time>
      </trkpt>
      <trkpt lat="52.23802400" lon="9.569543000">
        <ele>324.83800</ele>
        <time>2012-03-09T22:28:34Z</time>
      </trkpt>
      <trkpt lat="52.23797100" lon="9.569229000">
        <ele>326.85000</ele>
        <time>2012-03-09T22:28:42Z</time>
      </trkpt>
      <trkpt lat="52.23793700" lon="9.568930000">
        <ele>328.06900</ele>
        <time>2012-03-09T22:28:49Z</time>
      </trkpt>
      <trkpt lat="52.23789500" lon="9.568653000">
        <ele>328.30600</ele>
        <time>2012-03-09T22:28:56Z</time>
      </trkpt>
      <trkpt lat="52.23787800" lon="9.568280000">
        <ele>329.29100</ele>
        <time>2012-03-09T22:29:05Z</time>
      </trkpt>
      <trkpt lat="52.23791900" lon="9.567961000">
        <ele>329.04600</ele>
        <time>2012-03-09T22:29:13Z</time>
      </trkpt>
      <trkpt lat="52.23794300" lon="9.567729000">
        <ele>329.44700</ele>
        <time>2012-03-09T22:29:19Z</time>
      </trkpt>
      <trkpt lat="52.23800500" lon="9.567466000">
        <ele>329.21300</ele>
        <time>2012-03-09T22:29:26Z</time>
      </trkpt>
      <trkpt lat="52.23801000" lon="9.567215000">
        <ele>329.51300</ele>
        <time>2012-03-09T22:29:32Z</time>
      </trkpt>
      <trkpt lat="52.23796200" lon="9.566873000">
        <ele>329.91500</ele>
        <time>2012-03-09T22:29:41Z</time>
      </trkpt>
      <trkpt lat="52.23793900" lon="9.566542000">
        <ele>329.50600</ele>
        <time>2012-03-09T22:29:49Z</time>
      </trkpt>
      <trkpt lat="52.23789500" lon="9.566186000">
        <ele>329.74500</ele>
        <time>2012-03-09T22:29:58Z</time>
      </trkpt>
      <trkpt lat="52.23777800" lon="9.566018000">
        <ele>330.36600</ele>
        <time>2012-03-09T22:30:04Z</time>
      </trkpt>
      <trkpt lat="52.23769900" lon="9.565893000">
        <ele>328.67400</ele>
        <time>2012-03-09T22:30:08Z</time>
      </trkpt>
      <trkpt lat="52.23763400" lon="9.565749000">
        <ele>328.78700</ele>
        <time>2012-03-09T22:30:13Z</time>
      </trkpt>
      <trkpt lat="52.23757800" lon="9.565529000">
        <ele>329.42900</ele>
        <time>2012-03-09T22:30:19Z</time>
      </trkpt>
      <trkpt lat="52.23745700" lon="9.564960000">
        <ele>331.06800</ele>
        <time>2012-03-09T22:30:33Z</time>
      </trkpt>
      <trkpt lat="52.23741600" lon="9.564773000">
        <ele>331.75600</ele>
        <time>2012-03-09T22:30:38Z</time>
      </trkpt>
      <trkpt lat="52.23734000" lon="9.564451000">
        <ele>332.30800</ele>
        <time>2012-03-09T22:30:47Z</time>
      </trkpt>
      <trkpt lat="52.23727500" lon="9.564135000">
        <ele>332.72700</ele>
        <time>2012-03-09T22:30:55Z</time>
      </trkpt>
      <trkpt lat="52.23726100" lon="9.563922000">
        <ele>333.62700</ele>
        <time>2012-03-09T22:31:00Z</time>
      </trkpt>
      <trkpt lat="52.23723200" lon="9.563675000">
        <ele>334.73900</ele>
        <time>2012-03-09T22:31:06Z</time>
      </trkpt>
      <trkpt lat="52.23720300" lon="9.563321000">
        <ele>334.20900</ele>
        <time>2012-03-09T22:31:15Z</time>
      </trkpt>
      <trkpt lat="52.23718800" lon="9.563099000">
        <ele>334.81600</ele>
        <time>2012-03-09T22:31:20Z</time>
      </trkpt>
      <trkpt lat="52.23715800" lon="9.562820000">
        <ele>335.96000</ele>
        <time>2012-03-09T22:31:27Z</time>
      </trkpt>
      <trkpt lat="52.23711100" lon="9.562506000">
        <ele>335.70700</ele>
        <time>2012-03-09T22:31:35Z</time>
      </trkpt>
      <trkpt lat="52.23710400" lon="9.562332000">
        <ele>335.94600</ele>
        <time>2012-03-09T22:31:40Z</time>
      </trkpt>
      <trkpt lat="52.23706900" lon="9.562197000">
        <ele>335.78400</ele>
        <time>2012-03-09T22:31:43Z</time>
      </trkpt>
      <trkpt lat="52.23688300" lon="9.561910000">
        <ele>335.97900</ele>
        <time>2012-03-09T22:31:53Z</time>
      </trkpt>
      <trkpt lat="52.23678400" lon="9.561750000">
        <ele>335.59000</ele>
        <time>2012-03-09T22:31:59Z</time>
      </trkpt>
      <trkpt lat="52.23670100" lon="9.561668000">
        <ele>336.82000</ele>
        <time>2012-03-09T22:32:03Z</time>
      </trkpt>
      <trkpt lat="52.23651900" lon="9.561457000">
        <ele>337.83100</ele>
        <time>2012-03-09T22:32:12Z</time>
      </trkpt>
      <trkpt lat="52.23645700" lon="9.561232000">
        <ele>338.57900</ele>
        <time>2012-03-09T22:32:18Z</time>
      </trkpt>
      <trkpt lat="52.23643200" lon="9.561070000">
        <ele>340.24400</ele>
        <time>2012-03-09T22:32:22Z</time>
      </trkpt>
      <trkpt lat="52.23640600" lon="9.560811000">
        <ele>340.62300</ele>
        <time>2012-03-09T22:32:28Z</time>
      </trkpt>
      <trkpt lat="52.23640600" lon="9.560713000">
        <ele>340.72100</ele>
        <time>2012-03-09T22:32:31Z</time>
      </trkpt>
      <trkpt lat="52.23638700" lon="9.560516000">
        <ele>340.03200</ele>
        <time>2012-03-09T22:32:36Z</time>
      </trkpt>
      <trkpt lat="52.23635500" lon="9.560383000">
        <ele>340.44100</ele>
        <time>2012-03-09T22:32:39Z</time>
      </trkpt>
      <trkpt lat="52.23632400" lon="9.560107000">
        <ele>340.93700</ele>
        <time>2012-03-09T22:32:46Z</time>
      </trkpt>
      <trkpt lat="52.23629800" lon="9.559856000">
        <ele>339.79300</ele>
        <time>2012-03-09T22:32:52Z</time>
      </trkpt>
      <trkpt lat="52.23629600" lon="9.559664000">
        <ele>339.33400</ele>
        <time>2012-03-09T22:32:57Z</time>
      </trkpt>
      <trkpt lat="52.23626100" lon="9.559393000">
        <ele>339.02500</ele>
        <time>2012-03-09T22:33:04Z</time>
      </trkpt>
      <trkpt lat="52.23623200" lon="9.559109000">
        <ele>339.22800</ele>
        <time>2012-03-09T22:33:11Z</time>
      </trkpt>
      <trkpt lat="52.23622400" lon="9.559032000">
        <ele>339.81700</ele>
        <time>2012-03-09T22:33:13Z</time>
      </trkpt>
      <trkpt lat="52.23622700" lon="9.558893000">
        <ele>338.33300</ele>
        <time>2012-03-09T22:33:16Z</time>
      </trkpt>
      <trkpt lat="52.23622700" lon="9.558748000">
        <ele>337.53300</ele>
        <time>2012-03-09T22:33:20Z</time>
      </trkpt>
      <trkpt lat="52.23621300" lon="9.558654000">
        <ele>336.61400</ele>
        <time>2012-03-09T22:33:22Z</time>
      </trkpt>
      <trkpt lat="52.23616500" lon="9.558507000">
        <ele>337.18200</ele>
        <time>2012-03-09T22:33:26Z</time>
      </trkpt>
      <trkpt lat="52.23615500" lon="9.558535000">
        <ele>337.32000</ele>
        <time>2012-03-09T22:33:27Z</time>
      </trkpt>
      <trkpt lat="52.23614500" lon="9.558538000">
        <ele>334.53400</ele>
        <time>2012-03-09T22:33:27Z</time>
      </trkpt>
      <trkpt lat="52.23614300" lon="9.558537000">
        <ele>337.56300</ele>
        <time>2012-03-09T22:33:28Z</time>
      </trkpt>
      <trkpt lat="52.23614300" lon="9.558530000">
        <ele>337.75300</ele>
        <time>2012-03-09T22:33:28Z</time>
      </trkpt>
      <trkpt lat="52.23614900" lon="9.558458000">
        <ele>337.01200</ele>
        <time>2012-03-09T22:33:29Z</time>
      </trkpt>
      <trkpt lat="52.23616100" lon="9.558324000">
        <ele>335.15200</ele>
        <time>2012-03-09T22:33:33Z</time>
      </trkpt>
      <trkpt lat="52.23616700" lon="9.558299000">
        <ele>334.61300</ele>
        <time>2012-03-09T22:33:33Z</time>
      </trkpt>
      <trkpt lat="52.23619800" lon="9.558265000">
        <ele>333.78800</ele>
        <time>2012-03-09T22:33:35Z</time>
      </trkpt>
      <trkpt lat="52.23628100" lon="9.558346000">
        <ele>331.74300</ele>
        <time>2012-03-09T22:33:39Z</time>
      </trkpt>
      <trkpt lat="52.23646300" lon="9.558360000">
        <ele>329.99600</ele>
        <time>2012-03-09T22:33:46Z</time>
      </trkpt>
      <trkpt lat="52.23660300" lon="9.558296000">
        <ele>326.53600</ele>
        <time>2012-03-09T22:33:52Z</time>
      </trkpt>
      <trkpt lat="52.23669600" lon="9.558246000">
        <ele>323.20100</ele>
        <time>2012-03-09T22:33:56Z</time>
      </trkpt>
      <trkpt lat="52.23703800" lon="9.558271000">
        <ele>322.25300</ele>
        <time>2012-03-09T22:34:10Z</time>
      </trkpt>
      <trkpt lat="52.23711000" lon="9.558240000">
        <ele>321.98500</ele>
        <time>2012-03-09T22:34:13Z</time>
      </trkpt>
      <trkpt lat="52.23738100" lon="9.558033000">
        <ele>321.29500</ele>
        <time>2012-03-09T22:34:25Z</time>
      </trkpt>
      <trkpt lat="52.23747500" lon="9.557979000">
        <ele>321.31900</ele>
        <time>2012-03-09T22:34:28Z</time>
      </trkpt>
      <trkpt lat="52.23761900" lon="9.557896000">
        <ele>321.39100</ele>
        <time>2012-03-09T22:34:35Z</time>
      </trkpt>
      <trkpt lat="52.23775400" lon="9.557818000">
        <ele>320.92600</ele>
        <time>2012-03-09T22:34:40Z</time>
      </trkpt>
      <trkpt lat="52.23786400" lon="9.557755000">
        <ele>320.02900</ele>
        <time>2012-03-09T22:34:45Z</time>
      </trkpt>
      <trkpt lat="52.23806000" lon="9.557642000">
        <ele>319.91100</ele>
        <time>2012-03-09T22:34:53Z</time>
      </trkpt>
      <trkpt lat="52.23820000" lon="9.557561000">
        <ele>320.44900</ele>
        <time>2012-03-09T22:34:59Z</time>
      </trkpt>
      <trkpt lat="52.23841100" lon="9.557439000">
        <ele>320.72300</ele>
        <time>2012-03-09T22:35:08Z</time>
      </trkpt>
      <trkpt lat="52.23865900" lon="9.557304000">
        <ele>320.94100</ele>
        <time>2012-03-09T22:35:19Z</time>
      </trkpt>
      <trkpt lat="52.23875700" lon="9.557260000">
        <ele>319.45000</ele>
        <time>2012-03-09T22:35:23Z</time>
      </trkpt>
      <trkpt lat="52.23887800" lon="9.557206000">
        <ele>318.30600</ele>
        <time>2012-03-09T22:35:28Z</time>
      </trkpt>
      <trkpt lat="52.23905300" lon="9.557129000">
        <ele>317.27000</ele>
        <time>2012-03-09T22:35:35Z</time>
      </trkpt>
      <trkpt lat="52.23922100" lon="9.557060000">
        <ele>316.36600</ele>
        <time>2012-03-09T22:35:42Z</time>
      </trkpt>
      <trkpt lat="52.23938800" lon="9.556989000">
        <ele>315.92500</ele>
        <time>2012-03-09T22:35:49Z</time>
      </trkpt>
      <trkpt lat="52.23948300" lon="9.556944000">
        <ele>315.90700</ele>
        <time>2012-03-09T22:35:53Z</time>
      </trkpt>
      <trkpt lat="52.23952000" lon="9.556926000">
        <ele>316.47300</ele>
        <time>2012-03-09T22:35:54Z</time>
      </trkpt>
      <trkpt lat="52.23975700" lon="9.556789000">
        <ele>314.65100</ele>
        <time>2012-03-09T22:36:04Z</time>
      </trkpt>
      <trkpt lat="52.23978400" lon="9.557287000">
        <ele>315.89100</ele>
        <time>2012-03-09T22:36:17Z</time>
      </trkpt>
      <trkpt lat="52.23976500" lon="9.557715000">
        <ele>316.53900</ele>
        <time>2012-03-09T22:36:27Z</time>
      </trkpt>
      <trkpt lat="52.23968600" lon="9.557951000">
        <ele>317.14100</ele>
        <time>2012-03-09T22:36:34Z</time>
      </trkpt>
      <trkpt lat="52.23965300" lon="9.558241000">
        <ele>316.77900</ele>
        <time>2012-03-09T22:36:41Z</time>
      </trkpt>
      <trkpt lat="52.23964500" lon="9.558558000">
        <ele>315.65100</ele>
        <time>2012-03-09T22:36:49Z</time>
      </trkpt>
      <trkpt lat="52.23964000" lon="9.558804000">
        <ele>314.52600</ele>
        <time>2012-03-09T22:36:55Z</time>
      </trkpt>
      <trkpt lat="52.23963100" lon="9.559155000">
        <ele>313.26600</ele>
        <time>2012-03-09T22:37:03Z</time>
      </trkpt>
      <trkpt lat="52.23963100" lon="9.559419000">
        <ele>311.70700</ele>
        <time>2012-03-09T22:37:10Z</time>
      </trkpt>
      <trkpt lat="52.23963800" lon="9.559513000">
        <ele>311.38200</ele>
        <time>2012-03-09T22:37:12Z</time>
      </trkpt>
      <trkpt lat="52.23970100" lon="9.559774000">
        <ele>310.13400</ele>
        <time>2012-03-09T22:37:19Z</time>
      </trkpt>
      <trkpt lat="52.23976000" lon="9.560084000">
        <ele>307.96000</ele>
        <time>2012-03-09T22:37:27Z</time>
      </trkpt>
      <trkpt lat="52.23981000" lon="9.560347000">
        <ele>306.26600</ele>
        <time>2012-03-09T22:37:34Z</time>
      </trkpt>
      <trkpt lat="52.23987000" lon="9.560725000">
        <ele>303.82300</ele>
        <time>2012-03-09T22:37:43Z</time>
      </trkpt>
      <trkpt lat="52.23989400" lon="9.560869000">
        <ele>302.53200</ele>
        <time>2012-03-09T22:37:47Z</time>
      </trkpt>
      <trkpt lat="52.23991900" lon="9.561074000">
        <ele>300.91900</ele>
        <time>2012-03-09T22:37:52Z</time>
      </trkpt>
      <trkpt lat="52.23992000" lon="9.561083000">
        <ele>298.87700</ele>
        <time>2012-03-09T22:37:52Z</time>
      </trkpt>
      <trkpt lat="52.23988000" lon="9.561919000">
        <ele>296.45500</ele>
        <time>2012-03-09T22:38:13Z</time>
      </trkpt>
      <trkpt lat="52.23998600" lon="9.562178000">
        <ele>293.44000</ele>
        <time>2012-03-09T22:38:21Z</time>
      </trkpt>
      <trkpt lat="52.24005000" lon="9.562261000">
        <ele>291.88200</ele>
        <time>2012-03-09T22:38:24Z</time>
      </trkpt>
      <trkpt lat="52.24018600" lon="9.562426000">
        <ele>288.71500</ele>
        <time>2012-03-09T22:38:31Z</time>
      </trkpt>
      <trkpt lat="52.24034000" lon="9.562724000">
        <ele>286.24100</ele>
        <time>2012-03-09T22:38:40Z</time>
      </trkpt>
      <trkpt lat="52.24040800" lon="9.563028000">
        <ele>283.19000</ele>
        <time>2012-03-09T22:38:48Z</time>
      </trkpt>
      <trkpt lat="52.24051500" lon="9.563252000">
        <ele>280.76300</ele>
        <time>2012-03-09T22:38:55Z</time>
      </trkpt>
      <trkpt lat="52.24065300" lon="9.563423000">
        <ele>278.42600</ele>
        <time>2012-03-09T22:39:02Z</time>
      </trkpt>
      <trkpt lat="52.24076800" lon="9.563605000">
        <ele>276.59000</ele>
        <time>2012-03-09T22:39:08Z</time>
      </trkpt>
      <trkpt lat="52.24079600" lon="9.563672000">
        <ele>275.45500</ele>
        <time>2012-03-09T22:39:10Z</time>
      </trkpt>
      <trkpt lat="52.24086800" lon="9.563912000">
        <ele>272.88300</ele>
        <time>2012-03-09T22:39:17Z</time>
      </trkpt>
      <trkpt lat="52.24087100" lon="9.563934000">
        <ele>272.02200</ele>
        <time>2012-03-09T22:39:18Z</time>
      </trkpt>
      <trkpt lat="52.24090600" lon="9.564244000">
        <ele>269.76100</ele>
        <time>2012-03-09T22:39:25Z</time>
      </trkpt>
      <trkpt lat="52.24095900" lon="9.564662000">
        <ele>268.95500</ele>
        <time>2012-03-09T22:39:36Z</time>
      </trkpt>
      <trkpt lat="52.24099300" lon="9.564980000">
        <ele>267.89100</ele>
        <time>2012-03-09T22:39:44Z</time>
      </trkpt>
      <trkpt lat="52.24102600" lon="9.565306000">
        <ele>267.50400</ele>
        <time>2012-03-09T22:39:52Z</time>
      </trkpt>
      <trkpt lat="52.24106900" lon="9.565708000">
        <ele>267.86100</ele>
        <time>2012-03-09T22:40:02Z</time>
      </trkpt>
      <trkpt lat="52.24110000" lon="9.565981000">
        <ele>267.08300</ele>
        <time>2012-03-09T22:40:09Z</time>
      </trkpt>
      <trkpt lat="52.24113800" lon="9.566334000">
        <ele>267.78300</ele>
        <time>2012-03-09T22:40:17Z</time>
      </trkpt>
      <trkpt lat="52.24114300" lon="9.566685000">
        <ele>267.11000</ele>
        <time>2012-03-09T22:40:26Z</time>
      </trkpt>
      <trkpt lat="52.24113400" lon="9.566993000">
        <ele>267.08300</ele>
        <time>2012-03-09T22:40:34Z</time>
      </trkpt>
      <trkpt lat="52.24111900" lon="9.567369000">
        <ele>267.43200</ele>
        <time>2012-03-09T22:40:43Z</time>
      </trkpt>
      <trkpt lat="52.24110700" lon="9.567654000">
        <ele>266.98700</ele>
        <time>2012-03-09T22:40:50Z</time>
      </trkpt>
      <trkpt lat="52.24109500" lon="9.567956000">
        <ele>266.91500</ele>
        <time>2012-03-09T22:40:57Z</time>
      </trkpt>
      <trkpt lat="52.24109200" lon="9.568342000">
        <ele>267.24100</ele>
        <time>2012-03-09T22:41:07Z</time>
      </trkpt>
      <trkpt lat="52.24109100" lon="9.568677000">
        <ele>267.30000</ele>
        <time>2012-03-09T22:41:15Z</time>
      </trkpt>
      <trkpt lat="52.24112000" lon="9.568948000">
        <ele>266.49100</ele>
        <time>2012-03-09T22:41:22Z</time>
      </trkpt>
      <trkpt lat="52.24116600" lon="9.569244000">
        <ele>266.25600</ele>
        <time>2012-03-09T22:41:29Z</time>
      </trkpt>
      <trkpt lat="52.24124400" lon="9.569606000">
        <ele>264.73300</ele>
        <time>2012-03-09T22:41:38Z</time>
      </trkpt>
      <trkpt lat="52.24130600" lon="9.569935000">
        <ele>264.82000</ele>
        <time>2012-03-09T22:41:47Z</time>
      </trkpt>
      <trkpt lat="52.24136700" lon="9.570273000">
        <ele>264.13200</ele>
        <time>2012-03-09T22:41:56Z</time>
      </trkpt>
      <trkpt lat="52.24140400" lon="9.570539000">
        <ele>264.58300</ele>
        <time>2012-03-09T22:42:02Z</time>
      </trkpt>
      <trkpt lat="52.24142600" lon="9.570773000">
        <ele>263.44100</ele>
        <time>2012-03-09T22:42:08Z</time>
      </trkpt>
      <trkpt lat="52.24143700" lon="9.571059000">
        <ele>262.50600</ele>
        <time>2012-03-09T22:42:15Z</time>
      </trkpt>
      <trkpt lat="52.24144900" lon="9.571403000">
        <ele>261.77900</ele>
        <time>2012-03-09T22:42:24Z</time>
      </trkpt>
      <trkpt lat="52.24145800" lon="9.571713000">
        <ele>260.84000</ele>
        <time>2012-03-09T22:42:31Z</time>
      </trkpt>
      <trkpt lat="52.24146400" lon="9.572037000">
        <ele>259.31200</ele>
        <time>2012-03-09T22:42:39Z</time>
      </trkpt>
      <trkpt lat="52.24145600" lon="9.572408000">
        <ele>258.30400</ele>
        <time>2012-03-09T22:42:48Z</time>
      </trkpt>
      <trkpt lat="52.24143400" lon="9.572693000">
        <ele>256.10400</ele>
        <time>2012-03-09T22:42:55Z</time>
      </trkpt>
      <trkpt lat="52.24139900" lon="9.573024000">
        <ele>255.65100</ele>
        <time>2012-03-09T22:43:03Z</time>
      </trkpt>
      <trkpt lat="52.24135100" lon="9.573404000">
        <ele>253.71200</ele>
        <time>2012-03-09T22:43:13Z</time>
      </trkpt>
      <trkpt lat="52.24128400" lon="9.573851000">
        <ele>251.85100</ele>
        <time>2012-03-09T22:43:24Z</time>
      </trkpt>
      <trkpt lat="52.24122800" lon="9.574184000">
        <ele>251.53200</ele>
        <time>2012-03-09T22:43:33Z</time>
      </trkpt>
      <trkpt lat="52.24116500" lon="9.574534000">
        <ele>249.16100</ele>
        <time>2012-03-09T22:43:42Z</time>
      </trkpt>
      <trkpt lat="52.24112600" lon="9.574778000">
        <ele>249.05300</ele>
        <time>2012-03-09T22:43:48Z</time>
      </trkpt>
      <trkpt lat="52.24108000" lon="9.575069000">
        <ele>247.97200</ele>
        <time>2012-03-09T22:43:55Z</time>
      </trkpt>
      <trkpt lat="52.24102100" lon="9.575452000">
        <ele>245.96100</ele>
        <time>2012-03-09T22:44:05Z</time>
      </trkpt>
      <trkpt lat="52.24096600" lon="9.575802000">
        <ele>245.39700</ele>
        <time>2012-03-09T22:44:14Z</time>
      </trkpt>
      <trkpt lat="52.24090600" lon="9.576186000">
        <ele>243.87200</ele>
        <time>2012-03-09T22:44:23Z</time>
      </trkpt>
      <trkpt lat="52.24085600" lon="9.576504000">
        <ele>243.31500</ele>
        <time>2012-03-09T22:44:31Z</time>
      </trkpt>
      <trkpt lat="52.24082500" lon="9.576757000">
        <ele>242.78000</ele>
        <time>2012-03-09T22:44:38Z</time>
      </trkpt>
      <trkpt lat="52.24079400" lon="9.577020000">
        <ele>240.92700</ele>
        <time>2012-03-09T22:44:44Z</time>
      </trkpt>
      <trkpt lat="52.24074400" lon="9.577447000">
        <ele>238.96000</ele>
        <time>2012-03-09T22:44:55Z</time>
      </trkpt>
      <trkpt lat="52.24067200" lon="9.577800000">
        <ele>236.56200</ele>
        <time>2012-03-09T22:45:04Z</time>
      </trkpt>
      <trkpt lat="52.24065000" lon="9.577889000">
        <ele>235.47200</ele>
        <time>2012-03-09T22:45:07Z</time>
      </trkpt>
      <trkpt lat="52.24055300" lon="9.578468000">
        <ele>234.18100</ele>
        <time>2012-03-09T22:45:21Z</time>
      </trkpt>
      <trkpt lat="52.24050700" lon="9.578744000">
        <ele>235.01400</ele>
        <time>2012-03-09T22:45:28Z</time>
      </trkpt>
      <trkpt lat="52.24045800" lon="9.579035000">
        <ele>234.10700</ele>
        <time>2012-03-09T22:45:36Z</time>
      </trkpt>
      <trkpt lat="52.24041800" lon="9.579274000">
        <ele>232.87700</ele>
        <time>2012-03-09T22:45:42Z</time>
      </trkpt>
      <trkpt lat="52.24039200" lon="9.579515000">
        <ele>233.05500</ele>
        <time>2012-03-09T22:45:48Z</time>
      </trkpt>
      <trkpt lat="52.24036900" lon="9.579767000">
        <ele>232.50900</ele>
        <time>2012-03-09T22:45:54Z</time>
      </trkpt>
      <trkpt lat="52.24033600" lon="9.580266000">
        <ele>230.63000</ele>
        <time>2012-03-09T22:46:06Z</time>
      </trkpt>
      <trkpt lat="52.24040600" lon="9.580706000">
        <ele>228.89000</ele>
        <time>2012-03-09T22:46:17Z</time>
      </trkpt>
      <trkpt lat="52.24045700" lon="9.581032000">
        <ele>227.24700</ele>
        <time>2012-03-09T22:46:26Z</time>
      </trkpt>
      <trkpt lat="52.24049900" lon="9.581383000">
        <ele>226.17900</ele>
        <time>2012-03-09T22:46:34Z</time>
      </trkpt>
      <trkpt lat="52.24054800" lon="9.581802000">
        <ele>224.72800</ele>
        <time>2012-03-09T22:46:45Z</time>
      </trkpt>
      <trkpt lat="52.24058800" lon="9.582141000">
        <ele>223.98200</ele>
        <time>2012-03-09T22:46:53Z</time>
      </trkpt>
      <trkpt lat="52.24063600" lon="9.582549000">
        <ele>223.86000</ele>
        <time>2012-03-09T22:47:04Z</time>
      </trkpt>
      <trkpt lat="52.24066400" lon="9.582792000">
        <ele>222.80300</ele>
        <time>2012-03-09T22:47:10Z</time>
      </trkpt>
      <trkpt lat="52.24069700" lon="9.583072000">
        <ele>222.00000</ele>
        <time>2012-03-09T22:47:17Z</time>
      </trkpt>
      <trkpt lat="52.24073900" lon="9.583425000">
        <ele>220.85900</ele>
        <time>2012-03-09T22:47:25Z</time>
      </trkpt>
      <trkpt lat="52.24077400" lon="9.583726000">
        <ele>219.76100</ele>
        <time>2012-03-09T22:47:33Z</time>
      </trkpt>
      <trkpt lat="52.24082900" lon="9.584195000">
        <ele>218.20100</ele>
        <time>2012-03-09T22:47:45Z</time>
      </trkpt>
      <trkpt lat="52.24087800" lon="9.584610000">
        <ele>216.93500</ele>
        <time>2012-03-09T22:47:55Z</time>
      </trkpt>
      <trkpt lat="52.24089400" lon="9.584744000">
        <ele>215.83200</ele>
        <time>2012-03-09T22:47:58Z</time>
      </trkpt>
      <trkpt lat="52.24092100" lon="9.584983000">
        <ele>215.22400</ele>
        <time>2012-03-09T22:48:04Z</time>
      </trkpt>
      <trkpt lat="52.24101900" lon="9.585343000">
        <ele>214.19000</ele>
        <time>2012-03-09T22:48:14Z</time>
      </trkpt>
      <trkpt lat="52.24113700" lon="9.585581000">
        <ele>212.42200</ele>
        <time>2012-03-09T22:48:21Z</time>
      </trkpt>
      <trkpt lat="52.24129800" lon="9.585905000">
        <ele>210.79100</ele>
        <time>2012-03-09T22:48:32Z</time>
      </trkpt>
      <trkpt lat="52.24139300" lon="9.586096000">
        <ele>209.22700</ele>
        <time>2012-03-09T22:48:38Z</time>
      </trkpt>
      <trkpt lat="52.24152700" lon="9.586366000">
        <ele>207.45700</ele>
        <time>2012-03-09T22:48:46Z</time>
      </trkpt>
      <trkpt lat="52.24163700" lon="9.586586000">
        <ele>206.59000</ele>
        <time>2012-03-09T22:48:53Z</time>
      </trkpt>
      <trkpt lat="52.24172500" lon="9.586762000">
        <ele>205.52500</ele>
        <time>2012-03-09T22:48:59Z</time>
      </trkpt>
      <trkpt lat="52.24186800" lon="9.587050000">
        <ele>204.51900</ele>
        <time>2012-03-09T22:49:08Z</time>
      </trkpt>
      <trkpt lat="52.24199300" lon="9.587301000">
        <ele>203.22500</ele>
        <time>2012-03-09T22:49:16Z</time>
      </trkpt>
      <trkpt lat="52.24207600" lon="9.587469000">
        <ele>201.69500</ele>
        <time>2012-03-09T22:49:21Z</time>
      </trkpt>
      <trkpt lat="52.24208800" lon="9.587764000">
        <ele>200.81700</ele>
        <time>2012-03-09T22:49:28Z</time>
      </trkpt>
      <trkpt lat="52.24208900" lon="9.588092000">
        <ele>199.39200</ele>
        <time>2012-03-09T22:49:36Z</time>
      </trkpt>
      <trkpt lat="52.24208900" lon="9.588421000">
        <ele>198.73600</ele>
        <time>2012-03-09T22:49:44Z</time>
      </trkpt>
      <trkpt lat="52.24209000" lon="9.588678000">
        <ele>197.73200</ele>
        <time>2012-03-09T22:49:51Z</time>
      </trkpt>
      <trkpt lat="52.24209000" lon="9.589103000">
        <ele>197.05800</ele>
        <time>2012-03-09T22:50:01Z</time>
      </trkpt>
      <trkpt lat="52.24209100" lon="9.589443000">
        <ele>194.95700</ele>
        <time>2012-03-09T22:50:09Z</time>
      </trkpt>
      <trkpt lat="52.24209200" lon="9.589810000">
        <ele>193.44300</ele>
        <time>2012-03-09T22:50:18Z</time>
      </trkpt>
      <trkpt lat="52.24209200" lon="9.590012000">
        <ele>191.37200</ele>
        <time>2012-03-09T22:50:23Z</time>
      </trkpt>
      <trkpt lat="52.24209300" lon="9.590520000">
        <ele>190.29200</ele>
        <time>2012-03-09T22:50:36Z</time>
      </trkpt>
      <trkpt lat="52.24209300" lon="9.590855000">
        <ele>188.49600</ele>
        <time>2012-03-09T22:50:44Z</time>
      </trkpt>
      <trkpt lat="52.24209200" lon="9.591227000">
        <ele>186.68500</ele>
        <time>2012-03-09T22:50:53Z</time>
      </trkpt>
      <trkpt lat="52.24209100" lon="9.591693000">
        <ele>186.14200</ele>
        <time>2012-03-09T22:51:05Z</time>
      </trkpt>
      <trkpt lat="52.24209000" lon="9.592091000">
        <ele>183.96400</ele>
        <time>2012-03-09T22:51:14Z</time>
      </trkpt>
      <trkpt lat="52.24209000" lon="9.592492000">
        <ele>182.13600</ele>
        <time>2012-03-09T22:51:24Z</time>
      </trkpt>
      <trkpt lat="52.24208900" lon="9.592885000">
        <ele>180.63400</ele>
        <time>2012-03-09T22:51:34Z</time>
      </trkpt>
      <trkpt lat="52.24208800" lon="9.593197000">
        <ele>179.04100</ele>
        <time>2012-03-09T22:51:41Z</time>
      </trkpt>
      <trkpt lat="52.24208100" lon="9.593514000">
        <ele>177.84200</ele>
        <time>2012-03-09T22:51:49Z</time>
      </trkpt>
      <trkpt lat="52.24201500" lon="9.593741000">
        <ele>176.94300</ele>
        <time>2012-03-09T22:51:55Z</time>
      </trkpt>
      <trkpt lat="52.24180700" lon="9.593976000">
        <ele>176.44800</ele>
        <time>2012-03-09T22:52:06Z</time>
      </trkpt>
      <trkpt lat="52.24162500" lon="9.594104000">
        <ele>175.88500</ele>
        <time>2012-03-09T22:52:13Z</time>
      </trkpt>
      <trkpt lat="52.24143800" lon="9.594281000">
        <ele>175.31500</ele>
        <time>2012-03-09T22:52:22Z</time>
      </trkpt>
      <trkpt lat="52.24131800" lon="9.594560000">
        <ele>176.23900</ele>
        <time>2012-03-09T22:52:30Z</time>
      </trkpt>
      <trkpt lat="52.24123300" lon="9.594866000">
        <ele>176.54800</ele>
        <time>2012-03-09T22:52:39Z</time>
      </trkpt>
      <trkpt lat="52.24120400" lon="9.595180000">
        <ele>176.83000</ele>
        <time>2012-03-09T22:52:46Z</time>
      </trkpt>
      <trkpt lat="52.24121000" lon="9.595509000">
        <ele>177.92800</ele>
        <time>2012-03-09T22:52:55Z</time>
      </trkpt>
      <trkpt lat="52.24115900" lon="9.595826000">
        <ele>178.36600</ele>
        <time>2012-03-09T22:53:03Z</time>
      </trkpt>
      <trkpt lat="52.24103500" lon="9.596012000">
        <ele>179.68800</ele>
        <time>2012-03-09T22:53:09Z</time>
      </trkpt>
      <trkpt lat="52.24086700" lon="9.596264000">
        <ele>179.19500</ele>
        <time>2012-03-09T22:53:18Z</time>
      </trkpt>
      <trkpt lat="52.24084800" lon="9.596305000">
        <ele>179.27200</ele>
        <time>2012-03-09T22:53:20Z</time>
      </trkpt>
      <trkpt lat="52.24085900" lon="9.596719000">
        <ele>179.64700</ele>
        <time>2012-03-09T22:53:30Z</time>
      </trkpt>
      <trkpt lat="52.24095400" lon="9.597038000">
        <ele>179.40900</ele>
        <time>2012-03-09T22:53:39Z</time>
      </trkpt>
      <trkpt lat="52.24109300" lon="9.597198000">
        <ele>177.89500</ele>
        <time>2012-03-09T22:53:45Z</time>
      </trkpt>
      <trkpt lat="52.24124700" lon="9.597355000">
        <ele>176.38900</ele>
        <time>2012-03-09T22:53:53Z</time>
      </trkpt>
      <trkpt lat="52.24138800" lon="9.597533000">
        <ele>175.70500</ele>
        <time>2012-03-09T22:54:00Z</time>
      </trkpt>
      <trkpt lat="52.24153900" lon="9.597792000">
        <ele>174.50800</ele>
        <time>2012-03-09T22:54:09Z</time>
      </trkpt>
      <trkpt lat="52.24165500" lon="9.598156000">
        <ele>172.82500</ele>
        <time>2012-03-09T22:54:19Z</time>
      </trkpt>
      <trkpt lat="52.24171000" lon="9.598441000">
        <ele>171.31900</ele>
        <time>2012-03-09T22:54:26Z</time>
      </trkpt>
      <trkpt lat="52.24173700" lon="9.598764000">
        <ele>170.58900</ele>
        <time>2012-03-09T22:54:34Z</time>
      </trkpt>
      <trkpt lat="52.24174500" lon="9.598897000">
        <ele>169.30800</ele>
        <time>2012-03-09T22:54:37Z</time>
      </trkpt>
      <trkpt lat="52.24176000" lon="9.599177000">
        <ele>168.03200</ele>
        <time>2012-03-09T22:54:44Z</time>
      </trkpt>
      <trkpt lat="52.24177600" lon="9.599487000">
        <ele>167.05700</ele>
        <time>2012-03-09T22:54:52Z</time>
      </trkpt>
      <trkpt lat="52.24176800" lon="9.599866000">
        <ele>166.97200</ele>
        <time>2012-03-09T22:55:01Z</time>
      </trkpt>
      <trkpt lat="52.24175100" lon="9.599950000">
        <ele>166.70200</ele>
        <time>2012-03-09T22:55:03Z</time>
      </trkpt>
      <trkpt lat="52.24175000" lon="9.599953000">
        <ele>165.42900</ele>
        <time>2012-03-09T22:55:03Z</time>
      </trkpt>
      <trkpt lat="52.24216200" lon="9.600348000">
        <ele>160.17900</ele>
        <time>2012-03-09T22:55:22Z</time>
      </trkpt>
      <trkpt lat="52.24220900" lon="9.600393000">
        <ele>159.42000</ele>
        <time>2012-03-09T22:55:25Z</time>
      </trkpt>
      <trkpt lat="52.24239900" lon="9.600574000">
        <ele>156.41300</ele>
        <time>2012-03-09T22:55:33Z</time>
      </trkpt>
      <trkpt lat="52.24248900" lon="9.600661000">
        <ele>155.23200</ele>
        <time>2012-03-09T22:55:38Z</time>
      </trkpt>
      <trkpt lat="52.24269200" lon="9.600855000">
        <ele>152.80600</ele>
        <time>2012-03-09T22:55:47Z</time>
      </trkpt>
      <trkpt lat="52.24283500" lon="9.600992000">
        <ele>150.82200</ele>
        <time>2012-03-09T22:55:54Z</time>
      </trkpt>
      <trkpt lat="52.24297600" lon="9.601127000">
        <ele>148.71400</ele>
        <time>2012-03-09T22:56:00Z</time>
      </trkpt>
      <trkpt lat="52.24300400" lon="9.601154000">
        <ele>148.50700</ele>
        <time>2012-03-09T22:56:01Z</time>
      </trkpt>
      <trkpt lat="52.24326700" lon="9.601406000">
        <ele>145.08900</ele>
        <time>2012-03-09T22:56:14Z</time>
      </trkpt>
      <trkpt lat="52.24350900" lon="9.601635000">
        <ele>142.37500</ele>
        <time>2012-03-09T22:56:25Z</time>
      </trkpt>
      <trkpt lat="52.24365600" lon="9.601714000">
        <ele>140.79600</ele>
        <time>2012-03-09T22:56:31Z</time>
      </trkpt>
      <trkpt lat="52.24378300" lon="9.601783000">
        <ele>138.48800</ele>
        <time>2012-03-09T22:56:36Z</time>
      </trkpt>
      <trkpt lat="52.24389800" lon="9.601845000">
        <ele>136.69600</ele>
        <time>2012-03-09T22:56:41Z</time>
      </trkpt>
      <trkpt lat="52.24406100" lon="9.601934000">
        <ele>134.31500</ele>
        <time>2012-03-09T22:56:48Z</time>
      </trkpt>
      <trkpt lat="52.24428000" lon="9.602051000">
        <ele>133.81000</ele>
        <time>2012-03-09T22:56:57Z</time>
      </trkpt>
      <trkpt lat="52.24446600" lon="9.602152000">
        <ele>131.02500</ele>
        <time>2012-03-09T22:57:05Z</time>
      </trkpt>
      <trkpt lat="52.24474400" lon="9.602302000">
        <ele>128.48400</ele>
        <time>2012-03-09T22:57:17Z</time>
      </trkpt>
      <trkpt lat="52.24493000" lon="9.602403000">
        <ele>126.94000</ele>
        <time>2012-03-09T22:57:25Z</time>
      </trkpt>
      <trkpt lat="52.24512900" lon="9.602510000">
        <ele>125.13800</ele>
        <time>2012-03-09T22:57:33Z</time>
      </trkpt>
      <trkpt lat="52.24519400" lon="9.602545000">
        <ele>123.40400</ele>
        <time>2012-03-09T22:57:36Z</time>
      </trkpt>
      <trkpt lat="52.24523400" lon="9.602567000">
        <ele>122.77400</ele>
        <time>2012-03-09T22:57:38Z</time>
      </trkpt>
      <trkpt lat="52.24535600" lon="9.602643000">
        <ele>121.05500</ele>
        <time>2012-03-09T22:57:43Z</time>
      </trkpt>
      <trkpt lat="52.24540100" lon="9.602676000">
        <ele>120.73100</ele>
        <time>2012-03-09T22:57:45Z</time>
      </trkpt>
      <trkpt lat="52.24552100" lon="9.602768000">
        <ele>118.99700</ele>
        <time>2012-03-09T22:57:50Z</time>
      </trkpt>
      <trkpt lat="52.24572300" lon="9.602954000">
        <ele>115.32800</ele>
        <time>2012-03-09T22:57:59Z</time>
      </trkpt>
      <trkpt lat="52.24584100" lon="9.603063000">
        <ele>114.20000</ele>
        <time>2012-03-09T22:58:05Z</time>
      </trkpt>
      <trkpt lat="52.24594300" lon="9.603157000">
        <ele>111.56800</ele>
        <time>2012-03-09T22:58:09Z</time>
      </trkpt>
      <trkpt lat="52.24603500" lon="9.603242000">
        <ele>109.53400</ele>
        <time>2012-03-09T22:58:14Z</time>
      </trkpt>
      <trkpt lat="52.24611600" lon="9.603317000">
        <ele>107.87800</ele>
        <time>2012-03-09T22:58:17Z</time>
      </trkpt>
      <trkpt lat="52.24613900" lon="9.603337000">
        <ele>107.30400</ele>
        <time>2012-03-09T22:58:18Z</time>
      </trkpt>
      <trkpt lat="52.24627900" lon="9.603466000">
        <ele>105.36500</ele>
        <time>2012-03-09T22:58:25Z</time>
      </trkpt>
      <trkpt lat="52.24645300" lon="9.603627000">
        <ele>103.29000</ele>
        <time>2012-03-09T22:58:33Z</time>
      </trkpt>
      <trkpt lat="52.24661600" lon="9.603777000">
        <ele>101.41200</ele>
        <time>2012-03-09T22:58:40Z</time>
      </trkpt>
      <trkpt lat="52.24665000" lon="9.603809000">
        <ele>100.97100</ele>
        <time>2012-03-09T22:58:42Z</time>
      </trkpt>
      <trkpt lat="52.24680300" lon="9.603950000">
        <ele>99.782000</ele>
        <time>2012-03-09T22:58:49Z</time>
      </trkpt>
      <trkpt lat="52.24694900" lon="9.604616000">
        <ele>97.335000</ele>
        <time>2012-03-09T22:59:06Z</time>
      </trkpt>
      <trkpt lat="52.24699900" lon="9.604954000">
        <ele>95.832000</ele>
        <time>2012-03-09T22:59:15Z</time>
      </trkpt>
      <trkpt lat="52.24705400" lon="9.605319000">
        <ele>95.359000</ele>
        <time>2012-03-09T22:59:24Z</time>
      </trkpt>
      <trkpt lat="52.24710100" lon="9.605639000">
        <ele>94.933000</ele>
        <time>2012-03-09T22:59:32Z</time>
      </trkpt>
      <trkpt lat="52.24713600" lon="9.605874000">
        <ele>94.125000</ele>
        <time>2012-03-09T22:59:38Z</time>
      </trkpt>
      <trkpt lat="52.24717800" lon="9.606149000">
        <ele>93.308000</ele>
        <time>2012-03-09T22:59:45Z</time>
      </trkpt>
      <trkpt lat="52.24721400" lon="9.606391000">
        <ele>92.523000</ele>
        <time>2012-03-09T22:59:51Z</time>
      </trkpt>
      <trkpt lat="52.24726500" lon="9.606733000">
        <ele>92.600000</ele>
        <time>2012-03-09T23:00:00Z</time>
      </trkpt>
      <trkpt lat="52.24728100" lon="9.606841000">
        <ele>91.937000</ele>
        <time>2012-03-09T23:00:02Z</time>
      </trkpt>
      <trkpt lat="52.24741100" lon="9.606945000">
        <ele>90.161000</ele>
        <time>2012-03-09T23:00:08Z</time>
      </trkpt>
      <trkpt lat="52.24751800" lon="9.606975000">
        <ele>89.247000</ele>
        <time>2012-03-09T23:00:13Z</time>
      </trkpt>
      <trkpt lat="52.24767300" lon="9.607019000">
        <ele>89.498000</ele>
        <time>2012-03-09T23:00:19Z</time>
      </trkpt>
      <trkpt lat="52.24783900" lon="9.607066000">
        <ele>88.208000</ele>
        <time>2012-03-09T23:00:26Z</time>
      </trkpt>
    </trkseg>
  </trk>
</gpx>

